Observation data for Goodnight on 07/11/2018      Previous  Date       Current Mesonet Observations  Soil Data  Daily Summary Page  Observations in Plain Language
KGO1 110500Z 16007KT 24/18 A3016 RMK A01 T02410180  RH  069%=      5-min Rain = 0
KGO1 110501Z 16007KT 24/18 A3016 RMK A01 T02400180  RH  069%=      5-min Rain = 0
KGO1 110502Z 16007KT 24/18 A3016 RMK A01 T02400180  RH  069%=      5-min Rain = 0
KGO1 110503Z 16007KT 24/18 A3016 RMK A01 T02400180  RH  069%=      5-min Rain = 0
KGO1 110504Z 17007KT 24/18 A3016 RMK A01 T02400180  RH  069%=      5-min Rain = 0
KGO1 110505Z 17006KT 24/18 A3016 RMK A01 T02390180  RH  069%=      5-min Rain = 0
KGO1 110506Z 16006KT 24/18 A3016 RMK A01 T02390180  RH  069%=      5-min Rain = 0
KGO1 110507Z 16007KT 24/18 A3016 RMK A01 T02390179  RH  069%=      5-min Rain = 0
KGO1 110508Z 16007KT 24/18 A3016 RMK A01 T02390179  RH  069%=      5-min Rain = 0
KGO1 110509Z 16007KT 24/18 A3016 RMK A01 T02390179  RH  069%=      5-min Rain = 0
KGO1 110510Z 16006KT 24/18 A3016 RMK A01 T02390179  RH  069%=      5-min Rain = 0
KGO1 110511Z 16007KT 24/18 A3016 RMK A01 T02390180  RH  069%=      5-min Rain = 0
KGO1 110512Z 16007KT 24/18 A3016 RMK A01 T02390180  RH  069%=      5-min Rain = 0
KGO1 110513Z 17006KT 24/18 A3016 RMK A01 T02390180  RH  069%=      5-min Rain = 0
KGO1 110514Z 16006KT 24/18 A3016 RMK A01 T02390179  RH  069%=      5-min Rain = 0
KGO1 110515Z 16005KT 24/18 A3016 RMK A01 T02390179  RH  069%=      5-min Rain = 0
KGO1 110516Z 16005KT 24/18 A3016 RMK A01 T02390179  RH  069%=      5-min Rain = 0
KGO1 110517Z 17006KT 24/18 A3016 RMK A01 T02390180  RH  069%=      5-min Rain = 0
KGO1 110518Z 18006KT 24/18 A3016 RMK A01 T02380179  RH  069%=      5-min Rain = 0
KGO1 110519Z 18007KT 24/18 A3016 RMK A01 T02380179  RH  069%=      5-min Rain = 0
KGO1 110520Z 18007KT 24/18 A3016 RMK A01 T02380179  RH  069%=      5-min Rain = 0
KGO1 110521Z 18006KT 24/18 A3016 RMK A01 T02380179  RH  069%=      5-min Rain = 0
KGO1 110522Z 18007KT 24/18 A3016 RMK A01 T02380179  RH  069%=      5-min Rain = 0
KGO1 110523Z 18006KT 24/18 A3016 RMK A01 T02380179  RH  069%=      5-min Rain = 0
KGO1 110524Z 19006KT 24/18 A3016 RMK A01 T02370179  RH  070%=      5-min Rain = 0
KGO1 110525Z 19006KT 24/18 A3016 RMK A01 T02370179  RH  070%=      5-min Rain = 0
KGO1 110526Z 19006KT 24/18 A3016 RMK A01 T02360179  RH  070%=      5-min Rain = 0
KGO1 110527Z 19006KT 24/18 A3016 RMK A01 T02360179  RH  070%=      5-min Rain = 0
KGO1 110528Z 19006KT 24/18 A3016 RMK A01 T02360179  RH  070%=      5-min Rain = 0
KGO1 110529Z 19007KT 24/18 A3016 RMK A01 T02370179  RH  070%=      5-min Rain = 0
KGO1 110530Z 19007KT 24/18 A3016 RMK A01 T02370179  RH  070%=      5-min Rain = 0
KGO1 110531Z 19006KT 24/18 A3016 RMK A01 T02370179  RH  070%=      5-min Rain = 0
KGO1 110532Z 18007KT 24/18 A3016 RMK A01 T02360179  RH  070%=      5-min Rain = 0
KGO1 110533Z 18007KT 24/18 A3016 RMK A01 T02360178  RH  070%=      5-min Rain = 0
KGO1 110534Z 18006KT 24/18 A3016 RMK A01 T02360178  RH  070%=      5-min Rain = 0
KGO1 110535Z 18006KT 24/18 A3016 RMK A01 T02360178  RH  070%=      5-min Rain = 0
KGO1 110536Z 18006KT 24/18 A3016 RMK A01 T02360178  RH  070%=      5-min Rain = 0
KGO1 110537Z 19006KT 24/18 A3016 RMK A01 T02360178  RH  070%=      5-min Rain = 0
KGO1 110538Z 19006KT 24/18 A3016 RMK A01 T02360178  RH  070%=      5-min Rain = 0
KGO1 110539Z 19006KT 24/18 A3016 RMK A01 T02350178  RH  070%=      5-min Rain = 0
KGO1 110540Z 19006KT 24/18 A3016 RMK A01 T02350179  RH  071%=      5-min Rain = 0
KGO1 110541Z 19006KT 24/18 A3016 RMK A01 T02350179  RH  071%=      5-min Rain = 0
KGO1 110542Z 20006KT 24/18 A3016 RMK A01 T02350179  RH  071%=      5-min Rain = 0
KGO1 110543Z 20006KT 23/18 A3016 RMK A01 T02340178  RH  071%=      5-min Rain = 0
KGO1 110544Z 19006KT 23/18 A3016 RMK A01 T02340179  RH  071%=      5-min Rain = 0
KGO1 110545Z 19006KT 23/18 A3016 RMK A01 T02340179  RH  071%=      5-min Rain = 0
KGO1 110546Z 19006KT 23/18 A3016 RMK A01 T02340179  RH  071%=      5-min Rain = 0
KGO1 110547Z 19006KT 23/18 A3016 RMK A01 T02340179  RH  071%=      5-min Rain = 0
KGO1 110548Z 18007KT 23/18 A3016 RMK A01 T02340179  RH  071%=      5-min Rain = 0
KGO1 110549Z 18007KT 23/18 A3016 RMK A01 T02340179  RH  071%=      5-min Rain = 0
KGO1 110550Z 18007KT 23/18 A3016 RMK A01 T02340179  RH  071%=      5-min Rain = 0
KGO1 110551Z 18007KT 23/18 A3016 RMK A01 T02340178  RH  071%=      5-min Rain = 0
KGO1 110552Z 18007KT 23/18 A3016 RMK A01 T02340178  RH  071%=      5-min Rain = 0
KGO1 110553Z 18007KT 23/18 A3016 RMK A01 T02340179  RH  071%=      5-min Rain = 0
KGO1 110554Z 18007KT 23/18 A3016 RMK A01 T02340179  RH  071%=      5-min Rain = 0
KGO1 110555Z 18007KT 23/18 A3016 RMK A01 T02330178  RH  071%=      5-min Rain = 0
KGO1 110556Z 17007KT 23/18 A3016 RMK A01 T02330178  RH  071%=      5-min Rain = 0
KGO1 110557Z 17007KT 23/18 A3016 RMK A01 T02320178  RH  072%=      5-min Rain = 0
KGO1 110558Z 17007KT 23/18 A3016 RMK A01 T02320178  RH  072%=      5-min Rain = 0
KGO1 110559Z 17007KT 23/18 A3016 RMK A01 T02320178  RH  072%=      5-min Rain = 0
KGO1 110600Z 17007KT 23/18 A3016 RMK A01 T02310178  RH  072%=      5-min Rain = 0
KGO1 110601Z 17007KT 23/18 A3016 RMK A01 T02320178  RH  072%=      5-min Rain = 0
KGO1 110602Z 17007KT 23/18 A3016 RMK A01 T02320179  RH  072%=      5-min Rain = 0
KGO1 110603Z 17007KT 23/18 A3016 RMK A01 T02310179  RH  072%=      5-min Rain = 0
KGO1 110604Z 17006KT 23/18 A3016 RMK A01 T02310179  RH  072%=      5-min Rain = 0
KGO1 110605Z 17007KT 23/18 A3016 RMK A01 T02310179  RH  072%=      5-min Rain = 0
KGO1 110606Z 16007KT 23/18 A3016 RMK A01 T02310179  RH  072%=      5-min Rain = 0
KGO1 110607Z 16007KT 23/18 A3016 RMK A01 T02300179  RH  073%=      5-min Rain = 0
KGO1 110608Z 16008KT 23/18 A3016 RMK A01 T02300179  RH  073%=      5-min Rain = 0
KGO1 110609Z 16008KT 23/18 A3016 RMK A01 T02300179  RH  073%=      5-min Rain = 0
KGO1 110610Z 16008KT 23/18 A3016 RMK A01 T02300179  RH  073%=      5-min Rain = 0
KGO1 110611Z 15007KT 23/18 A3016 RMK A01 T02300179  RH  073%=      5-min Rain = 0
KGO1 110612Z 15008KT 23/18 A3016 RMK A01 T02300179  RH  073%=      5-min Rain = 0
KGO1 110613Z 15008KT 23/18 A3016 RMK A01 T02290179  RH  073%=      5-min Rain = 0
KGO1 110614Z 15008KT 23/18 A3016 RMK A01 T02290179  RH  073%=      5-min Rain = 0
KGO1 110615Z 15007KT 23/18 A3016 RMK A01 T02290178  RH  073%=      5-min Rain = 0
KGO1 110616Z 15006KT 23/18 A3016 RMK A01 T02290178  RH  073%=      5-min Rain = 0
KGO1 110617Z 16006KT 23/18 A3016 RMK A01 T02290178  RH  073%=      5-min Rain = 0
KGO1 110618Z 16006KT 23/18 A3016 RMK A01 T02290178  RH  073%=      5-min Rain = 0
KGO1 110619Z 16006KT 23/18 A3016 RMK A01 T02290178  RH  073%=      5-min Rain = 0
KGO1 110620Z 16006KT 23/18 A3016 RMK A01 T02290178  RH  073%=      5-min Rain = 0
KGO1 110621Z 16006KT 23/18 A3016 RMK A01 T02280178  RH  073%=      5-min Rain = 0
KGO1 110622Z 16006KT 23/18 A3016 RMK A01 T02270178  RH  074%=      5-min Rain = 0
KGO1 110623Z 16006KT 23/18 A3016 RMK A01 T02270178  RH  074%=      5-min Rain = 0
KGO1 110624Z 16006KT 23/18 A3016 RMK A01 T02270178  RH  074%=      5-min Rain = 0
KGO1 110625Z 16006KT 23/18 A3016 RMK A01 T02270178  RH  074%=      5-min Rain = 0
KGO1 110626Z 15006KT 23/18 A3016 RMK A01 T02270178  RH  074%=      5-min Rain = 0
KGO1 110627Z 15006KT 23/18 A3016 RMK A01 T02260178  RH  074%=      5-min Rain = 0
KGO1 110628Z 15006KT 23/18 A3016 RMK A01 T02260178  RH  074%=      5-min Rain = 0
KGO1 110629Z 15006KT 23/18 A3016 RMK A01 T02260178  RH  075%=      5-min Rain = 0
KGO1 110630Z 14005KT 23/18 A3016 RMK A01 T02260179  RH  075%=      5-min Rain = 0
KGO1 110631Z 14006KT 23/18 A3016 RMK A01 T02260179  RH  075%=      5-min Rain = 0
KGO1 110632Z 14006KT 23/18 A3016 RMK A01 T02250179  RH  075%=      5-min Rain = 0
KGO1 110633Z 14007KT 23/18 A3016 RMK A01 T02250179  RH  075%=      5-min Rain = 0
KGO1 110634Z 14007KT 22/18 A3016 RMK A01 T02240179  RH  075%=      5-min Rain = 0
KGO1 110635Z 14007KT 23/18 A3016 RMK A01 T02250179  RH  075%=      5-min Rain = 0
KGO1 110636Z 14008KT 23/18 A3016 RMK A01 T02250179  RH  075%=      5-min Rain = 0
KGO1 110637Z 14008KT 23/18 A3016 RMK A01 T02250179  RH  075%=      5-min Rain = 0
KGO1 110638Z 15008KT 23/18 A3016 RMK A01 T02260179  RH  075%=      5-min Rain = 0
KGO1 110639Z 16007KT 23/18 A3016 RMK A01 T02270179  RH  074%=      5-min Rain = 0
KGO1 110640Z 16007KT 23/18 A3016 RMK A01 T02270179  RH  074%=      5-min Rain = 0
KGO1 110641Z 17007KT 23/18 A3016 RMK A01 T02280179  RH  074%=      5-min Rain = 0
KGO1 110642Z 17007KT 23/18 A3016 RMK A01 T02280179  RH  074%=      5-min Rain = 0
KGO1 110643Z 17006KT 23/18 A3016 RMK A01 T02280178  RH  073%=      5-min Rain = 0
KGO1 110644Z 16006KT 23/18 A3016 RMK A01 T02280178  RH  073%=      5-min Rain = 0
KGO1 110645Z 14007KT 23/18 A3016 RMK A01 T02290178  RH  073%=      5-min Rain = 0
KGO1 110646Z 14007KT 23/18 A3016 RMK A01 T02280179  RH  074%=      5-min Rain = 0
KGO1 110647Z 14007KT 23/18 A3016 RMK A01 T02270179  RH  074%=      5-min Rain = 0
KGO1 110648Z 14006KT 23/18 A3016 RMK A01 T02250179  RH  075%=      5-min Rain = 0
KGO1 110649Z 14006KT 22/18 A3016 RMK A01 T02240179  RH  076%=      5-min Rain = 0
KGO1 110650Z 14006KT 22/18 A3016 RMK A01 T02230178  RH  076%=      5-min Rain = 0
KGO1 110651Z 14006KT 22/18 A3016 RMK A01 T02220179  RH  076%=      5-min Rain = 0
KGO1 110652Z 14007KT 22/18 A3016 RMK A01 T02220179  RH  077%=      5-min Rain = 0
KGO1 110653Z 14007KT 22/18 A3016 RMK A01 T02210179  RH  077%=      5-min Rain = 0
KGO1 110654Z 13007KT 22/18 A3016 RMK A01 T02200179  RH  077%=      5-min Rain = 0
KGO1 110655Z 14007KT 22/18 A3016 RMK A01 T02200179  RH  078%=      5-min Rain = 0
KGO1 110656Z 14007KT 22/18 A3016 RMK A01 T02190179  RH  078%=      5-min Rain = 0
KGO1 110657Z 14007KT 22/18 A3016 RMK A01 T02190179  RH  078%=      5-min Rain = 0
KGO1 110658Z 14006KT 22/18 A3016 RMK A01 T02180178  RH  078%=      5-min Rain = 0
KGO1 110659Z 13007KT 22/18 A3016 RMK A01 T02180179  RH  078%=      5-min Rain = 0
KGO1 110700Z 14007KT 22/18 A3016 RMK A01 T02180179  RH  078%=      5-min Rain = 0
KGO1 110701Z 14007KT 22/18 A3016 RMK A01 T02180179  RH  078%=      5-min Rain = 0
KGO1 110702Z 14007KT 22/18 A3016 RMK A01 T02180179  RH  078%=      5-min Rain = 0
KGO1 110703Z 14007KT 22/18 A3016 RMK A01 T02170178  RH  079%=      5-min Rain = 0
KGO1 110704Z 14006KT 22/18 A3016 RMK A01 T02170178  RH  079%=      5-min Rain = 0
KGO1 110705Z 14006KT 22/18 A3016 RMK A01 T02170178  RH  078%=      5-min Rain = 0
KGO1 110706Z 14006KT 22/18 A3016 RMK A01 T02180177  RH  078%=      5-min Rain = 0
KGO1 110707Z 14006KT 22/18 A3016 RMK A01 T02180177  RH  077%=      5-min Rain = 0
KGO1 110708Z 15006KT 22/18 A3016 RMK A01 T02190177  RH  077%=      5-min Rain = 0
KGO1 110709Z 15006KT 22/18 A3016 RMK A01 T02200177  RH  077%=      5-min Rain = 0
KGO1 110710Z 15007KT 22/18 A3016 RMK A01 T02200177  RH  076%=      5-min Rain = 0
KGO1 110711Z 15007KT 22/18 A3016 RMK A01 T02210177  RH  076%=      5-min Rain = 0
KGO1 110712Z 15007KT 22/18 A3016 RMK A01 T02210177  RH  076%=      5-min Rain = 0
KGO1 110713Z 15007KT 22/18 A3016 RMK A01 T02210177  RH  076%=      5-min Rain = 0
KGO1 110714Z 15007KT 22/18 A3016 RMK A01 T02210177  RH  076%=      5-min Rain = 0
KGO1 110715Z 15007KT 22/18 A3016 RMK A01 T02220177  RH  076%=      5-min Rain = 0
KGO1 110716Z 15007KT 22/18 A3016 RMK A01 T02220177  RH  076%=      5-min Rain = 0
KGO1 110717Z 15006KT 22/18 A3016 RMK A01 T02220178  RH  076%=      5-min Rain = 0
KGO1 110718Z 15006KT 22/18 A3016 RMK A01 T02220177  RH  076%=      5-min Rain = 0
KGO1 110719Z 15006KT 22/18 A3016 RMK A01 T02210177  RH  076%=      5-min Rain = 0
KGO1 110720Z 15006KT 22/18 A3016 RMK A01 T02210178  RH  076%=      5-min Rain = 0
KGO1 110721Z 15006KT 22/18 A3016 RMK A01 T02200177  RH  076%=      5-min Rain = 0
KGO1 110722Z 15006KT 22/18 A3016 RMK A01 T02210178  RH  077%=      5-min Rain = 0
KGO1 110723Z 15006KT 22/18 A3016 RMK A01 T02200178  RH  077%=      5-min Rain = 0
KGO1 110724Z 15006KT 22/18 A3016 RMK A01 T02200178  RH  077%=      5-min Rain = 0
KGO1 110725Z 15006KT 22/18 A3016 RMK A01 T02200178  RH  077%=      5-min Rain = 0
KGO1 110726Z 15005KT 22/18 A3016 RMK A01 T02190178  RH  077%=      5-min Rain = 0
KGO1 110727Z 15005KT 22/18 A3016 RMK A01 T02190177  RH  077%=      5-min Rain = 0
KGO1 110728Z 14005KT 22/18 A3016 RMK A01 T02190177  RH  077%=      5-min Rain = 0
KGO1 110729Z 14005KT 22/18 A3016 RMK A01 T02180177  RH  077%=      5-min Rain = 0
KGO1 110730Z 14005KT 22/18 A3016 RMK A01 T02180178  RH  078%=      5-min Rain = 0
KGO1 110731Z 14004KT 22/18 A3016 RMK A01 T02180178  RH  078%=      5-min Rain = 0
KGO1 110732Z 14003KT 22/18 A3016 RMK A01 T02180178  RH  078%=      5-min Rain = 0
KGO1 110733Z 13002KT 22/18 A3016 RMK A01 T02160178  RH  079%=      5-min Rain = 0
KGO1 110734Z 10001KT 21/18 A3016 RMK A01 T02130178  RH  080%=      5-min Rain = 0
KGO1 110735Z 11002KT 21/18 A3016 RMK A01 T02100178  RH  082%=      5-min Rain = 0
KGO1 110736Z 10002KT 21/18 A3016 RMK A01 T02080178  RH  083%=      5-min Rain = 0
KGO1 110737Z 09002KT 21/18 A3016 RMK A01 T02080178  RH  083%=      5-min Rain = 0
KGO1 110738Z 05003KT 21/18 A3016 RMK A01 T02070178  RH  083%=      5-min Rain = 0
KGO1 110739Z 04004KT 21/18 A3016 RMK A01 T02070177  RH  083%=      5-min Rain = 0
KGO1 110740Z 05004KT 21/18 A3016 RMK A01 T02070177  RH  083%=      5-min Rain = 0
KGO1 110741Z 04004KT 21/18 A3016 RMK A01 T02060177  RH  084%=      5-min Rain = 0
KGO1 110742Z 04004KT 21/18 A3016 RMK A01 T02050177  RH  084%=      5-min Rain = 0
KGO1 110743Z 05004KT 20/18 A3016 RMK A01 T02040177  RH  084%=      5-min Rain = 0
KGO1 110744Z 05005KT 20/18 A3016 RMK A01 T02040177  RH  085%=      5-min Rain = 0
KGO1 110745Z 05004KT 20/18 A3016 RMK A01 T02040177  RH  085%=      5-min Rain = 0
KGO1 110746Z 06003KT 20/18 A3016 RMK A01 T02040177  RH  084%=      5-min Rain = 0
KGO1 110747Z 07003KT 21/18 A3016 RMK A01 T02050177  RH  084%=      5-min Rain = 0
KGO1 110748Z 06003KT 21/18 A3016 RMK A01 T02060177  RH  084%=      5-min Rain = 0
KGO1 110749Z 08003KT 21/18 A3016 RMK A01 T02060177  RH  084%=      5-min Rain = 0
KGO1 110750Z 09003KT 21/18 A3016 RMK A01 T02060177  RH  084%=      5-min Rain = 0
KGO1 110751Z 09004KT 21/18 A3016 RMK A01 T02060177  RH  084%=      5-min Rain = 0
KGO1 110752Z 09004KT 21/18 A3016 RMK A01 T02050177  RH  084%=      5-min Rain = 0
KGO1 110753Z 10004KT 21/18 A3016 RMK A01 T02050177  RH  084%=      5-min Rain = 0
KGO1 110754Z 10004KT 20/18 A3016 RMK A01 T02040177  RH  084%=      5-min Rain = 0
KGO1 110755Z 10004KT 21/18 A3016 RMK A01 T02050177  RH  084%=      5-min Rain = 0
KGO1 110756Z 10004KT 21/18 A3016 RMK A01 T02050177  RH  084%=      5-min Rain = 0
KGO1 110757Z 10004KT 20/18 A3016 RMK A01 T02040177  RH  085%=      5-min Rain = 0
KGO1 110758Z 10004KT 20/18 A3016 RMK A01 T02040177  RH  085%=      5-min Rain = 0
KGO1 110759Z 10004KT 20/18 A3016 RMK A01 T02030177  RH  085%=      5-min Rain = 0
KGO1 110800Z 11004KT 20/18 A3016 RMK A01 T02030177  RH  085%=      5-min Rain = 0
KGO1 110801Z 11004KT 20/18 A3016 RMK A01 T02030177  RH  085%=      5-min Rain = 0
KGO1 110802Z 11004KT 20/18 A3016 RMK A01 T02030177  RH  085%=      5-min Rain = 0
KGO1 110803Z 11004KT 20/18 A3016 RMK A01 T02020176  RH  085%=      5-min Rain = 0
KGO1 110804Z 11004KT 20/18 A3016 RMK A01 T02020176  RH  085%=      5-min Rain = 0
KGO1 110805Z 11004KT 20/18 A3016 RMK A01 T02020177  RH  085%=      5-min Rain = 0
KGO1 110806Z 12004KT 20/18 A3016 RMK A01 T02010177  RH  086%=      5-min Rain = 0
KGO1 110807Z 11004KT 20/18 A3016 RMK A01 T02010177  RH  086%=      5-min Rain = 0
KGO1 110808Z 11003KT 20/18 A3016 RMK A01 T02000176  RH  086%=      5-min Rain = 0
KGO1 110809Z 11003KT 20/18 A3016 RMK A01 T02000176  RH  086%=      5-min Rain = 0
KGO1 110810Z 11003KT 20/18 A3016 RMK A01 T01990176  RH  086%=      5-min Rain = 0
KGO1 110811Z 11003KT 20/18 A3016 RMK A01 T01990176  RH  086%=      5-min Rain = 0
KGO1 110812Z 11003KT 20/18 A3016 RMK A01 T01990175  RH  087%=      5-min Rain = 0
KGO1 110813Z 11003KT 20/18 A3016 RMK A01 T01980175  RH  087%=      5-min Rain = 0
KGO1 110814Z 11003KT 20/18 A3016 RMK A01 T01980175  RH  087%=      5-min Rain = 0
KGO1 110815Z 11003KT 20/18 A3016 RMK A01 T01980175  RH  087%=      5-min Rain = 0
KGO1 110816Z 11002KT 20/18 A3016 RMK A01 T01980175  RH  087%=      5-min Rain = 0
KGO1 110817Z 11002KT 20/18 A3016 RMK A01 T01980175  RH  087%=      5-min Rain = 0
KGO1 110818Z 11002KT 20/18 A3016 RMK A01 T01980175  RH  086%=      5-min Rain = 0
KGO1 110819Z 11002KT 20/17 A3016 RMK A01 T01980174  RH  086%=      5-min Rain = 0
KGO1 110820Z 12002KT 20/18 A3016 RMK A01 T01970175  RH  087%=      5-min Rain = 0
KGO1 110821Z 12002KT 20/18 A3016 RMK A01 T01970175  RH  087%=      5-min Rain = 0
KGO1 110822Z 12002KT 20/18 A3016 RMK A01 T01970175  RH  087%=      5-min Rain = 0
KGO1 110823Z 11002KT 20/18 A3015 RMK A01 T01970175  RH  087%=      5-min Rain = 0
KGO1 110824Z 10002KT 20/18 A3015 RMK A01 T01970175  RH  087%=      5-min Rain = 0
KGO1 110825Z 09001KT 20/18 A3015 RMK A01 T01970175  RH  087%=      5-min Rain = 0
KGO1 110826Z 10002KT 20/18 A3015 RMK A01 T01970175  RH  087%=      5-min Rain = 0
KGO1 110827Z 09001KT 20/18 A3015 RMK A01 T01970175  RH  087%=      5-min Rain = 0
KGO1 110828Z 09001KT 20/18 A3015 RMK A01 T01960175  RH  087%=      5-min Rain = 0
KGO1 110829Z 09001KT 20/18 A3015 RMK A01 T01960175  RH  087%=      5-min Rain = 0
KGO1 110830Z 11001KT 20/18 A3015 RMK A01 T01960175  RH  087%=      5-min Rain = 0
KGO1 110831Z 12001KT 20/18 A3015 RMK A01 T01960175  RH  087%=      5-min Rain = 0
KGO1 110832Z 15001KT 20/18 A3015 RMK A01 T01960175  RH  088%=      5-min Rain = 0
KGO1 110833Z 15001KT 20/17 A3015 RMK A01 T01960174  RH  087%=      5-min Rain = 0
KGO1 110834Z 16000KT 20/18 A3015 RMK A01 T01960175  RH  088%=      5-min Rain = 0
KGO1 110835Z 18000KT 20/18 A3015 RMK A01 T01950176  RH  088%=      5-min Rain = 0
KGO1 110836Z 20001KT 20/18 A3015 RMK A01 T01950176  RH  088%=      5-min Rain = 0
KGO1 110837Z 19001KT 20/18 A3015 RMK A01 T01950176  RH  088%=      5-min Rain = 0
KGO1 110838Z 18001KT 20/18 A3015 RMK A01 T01960176  RH  088%=      5-min Rain = 0
KGO1 110839Z 19001KT 20/18 A3015 RMK A01 T01960176  RH  088%=      5-min Rain = 0
KGO1 110840Z 20001KT 20/18 A3015 RMK A01 T01970176  RH  088%=      5-min Rain = 0
KGO1 110841Z 20000KT 20/18 A3015 RMK A01 T01970176  RH  087%=      5-min Rain = 0
KGO1 110842Z 21001KT 20/18 A3015 RMK A01 T01980175  RH  087%=      5-min Rain = 0
KGO1 110843Z 21000KT 20/18 A3015 RMK A01 T01980175  RH  087%=      5-min Rain = 0
KGO1 110844Z 21000KT 20/18 A3015 RMK A01 T01990176  RH  087%=      5-min Rain = 0
KGO1 110845Z 22000KT 20/18 A3015 RMK A01 T01990175  RH  086%=      5-min Rain = 0
KGO1 110846Z 23000KT 20/18 A3015 RMK A01 T01990176  RH  086%=      5-min Rain = 0
KGO1 110847Z 23001KT 20/18 A3015 RMK A01 T01990175  RH  086%=      5-min Rain = 0
KGO1 110848Z 23001KT 20/18 A3015 RMK A01 T01990175  RH  086%=      5-min Rain = 0
KGO1 110849Z 24001KT 20/18 A3015 RMK A01 T02000176  RH  086%=      5-min Rain = 0
KGO1 110850Z 26001KT 20/18 A3015 RMK A01 T02000176  RH  086%=      5-min Rain = 0
KGO1 110851Z 25002KT 20/18 A3015 RMK A01 T02000176  RH  086%=      5-min Rain = 0
KGO1 110852Z 26002KT 20/18 A3015 RMK A01 T02010176  RH  086%=      5-min Rain = 0
KGO1 110853Z 26003KT 20/18 A3015 RMK A01 T02020175  RH  084%=      5-min Rain = 0
KGO1 110854Z 27003KT 20/17 A3015 RMK A01 T02030174  RH  084%=      5-min Rain = 0
KGO1 110855Z 26003KT 20/17 A3015 RMK A01 T02030174  RH  083%=      5-min Rain = 0
KGO1 110856Z 26003KT 20/17 A3015 RMK A01 T02040174  RH  083%=      5-min Rain = 0
KGO1 110857Z 25003KT 20/17 A3015 RMK A01 T02040174  RH  083%=      5-min Rain = 0
KGO1 110858Z 25003KT 20/17 A3015 RMK A01 T02040174  RH  083%=      5-min Rain = 0
KGO1 110859Z 24003KT 20/17 A3015 RMK A01 T02040174  RH  083%=      5-min Rain = 0
KGO1 110900Z 23003KT 21/17 A3015 RMK A01 T02050174  RH  082%=      5-min Rain = 0
KGO1 110901Z 23003KT 21/18 A3015 RMK A01 T02060175  RH  082%=      5-min Rain = 0
KGO1 110902Z 22003KT 21/18 A3015 RMK A01 T02060175  RH  082%=      5-min Rain = 0
KGO1 110903Z 22003KT 21/18 A3015 RMK A01 T02070176  RH  082%=      5-min Rain = 0
KGO1 110904Z 21003KT 21/18 A3015 RMK A01 T02080176  RH  082%=      5-min Rain = 0
KGO1 110905Z 20003KT 21/18 A3015 RMK A01 T02080176  RH  082%=      5-min Rain = 0
KGO1 110906Z 20004KT 21/18 A3015 RMK A01 T02090177  RH  082%=      5-min Rain = 0
KGO1 110907Z 20004KT 21/18 A3015 RMK A01 T02090177  RH  082%=      5-min Rain = 0
KGO1 110908Z 20004KT 21/18 A3015 RMK A01 T02100177  RH  082%=      5-min Rain = 0
KGO1 110909Z 20004KT 21/18 A3015 RMK A01 T02100177  RH  082%=      5-min Rain = 0
KGO1 110910Z 20005KT 21/18 A3015 RMK A01 T02100177  RH  082%=      5-min Rain = 0
KGO1 110911Z 20005KT 21/18 A3015 RMK A01 T02090177  RH  082%=      5-min Rain = 0
KGO1 110912Z 19005KT 21/18 A3014 RMK A01 T02090177  RH  082%=      5-min Rain = 0
KGO1 110913Z 19005KT 21/18 A3014 RMK A01 T02090178  RH  082%=      5-min Rain = 0
KGO1 110914Z 19005KT 21/18 A3014 RMK A01 T02080178  RH  083%=      5-min Rain = 0
KGO1 110915Z 18005KT 21/18 A3014 RMK A01 T02070178  RH  083%=      5-min Rain = 0
KGO1 110916Z 18006KT 21/18 A3014 RMK A01 T02070178  RH  083%=      5-min Rain = 0
KGO1 110917Z 18006KT 21/18 A3014 RMK A01 T02070178  RH  083%=      5-min Rain = 0
KGO1 110918Z 18006KT 21/18 A3014 RMK A01 T02070178  RH  084%=      5-min Rain = 0
KGO1 110919Z 18006KT 21/18 A3014 RMK A01 T02070178  RH  084%=      5-min Rain = 0
KGO1 110920Z 19006KT 21/18 A3014 RMK A01 T02070179  RH  084%=      5-min Rain = 0
KGO1 110921Z 19006KT 21/18 A3014 RMK A01 T02070179  RH  084%=      5-min Rain = 0
KGO1 110922Z 19006KT 21/18 A3014 RMK A01 T02070179  RH  084%=      5-min Rain = 0
KGO1 110923Z 18005KT 21/18 A3014 RMK A01 T02080180  RH  084%=      5-min Rain = 0
KGO1 110924Z 19005KT 21/18 A3014 RMK A01 T02080179  RH  084%=      5-min Rain = 0
KGO1 110925Z 19005KT 21/18 A3014 RMK A01 T02080179  RH  084%=      5-min Rain = 0
KGO1 110926Z 19005KT 21/18 A3014 RMK A01 T02080179  RH  084%=      5-min Rain = 0
KGO1 110927Z 19005KT 21/18 A3014 RMK A01 T02080180  RH  084%=      5-min Rain = 0
KGO1 110928Z 18005KT 21/18 A3014 RMK A01 T02080180  RH  084%=      5-min Rain = 0
KGO1 110929Z 18005KT 21/18 A3014 RMK A01 T02080180  RH  084%=      5-min Rain = 0
KGO1 110930Z 18006KT 21/18 A3014 RMK A01 T02080180  RH  084%=      5-min Rain = 0
KGO1 110931Z 18006KT 21/18 A3014 RMK A01 T02070180  RH  084%=      5-min Rain = 0
KGO1 110932Z 17006KT 21/18 A3014 RMK A01 T02070180  RH  085%=      5-min Rain = 0
KGO1 110933Z 17006KT 21/18 A3014 RMK A01 T02070181  RH  085%=      5-min Rain = 0
KGO1 110934Z 17007KT 21/18 A3014 RMK A01 T02070181  RH  085%=      5-min Rain = 0
KGO1 110935Z 18007KT 21/18 A3014 RMK A01 T02070181  RH  085%=      5-min Rain = 0
KGO1 110936Z 18007KT 21/18 A3014 RMK A01 T02080181  RH  085%=      5-min Rain = 0
KGO1 110937Z 18006KT 21/18 A3014 RMK A01 T02080182  RH  085%=      5-min Rain = 0
KGO1 110938Z 18007KT 21/18 A3014 RMK A01 T02080182  RH  085%=      5-min Rain = 0
KGO1 110939Z 18007KT 21/18 A3014 RMK A01 T02080183  RH  085%=      5-min Rain = 0
KGO1 110940Z 18006KT 21/18 A3014 RMK A01 T02080183  RH  085%=      5-min Rain = 0
KGO1 110941Z 18007KT 21/18 A3014 RMK A01 T02090183  RH  085%=      5-min Rain = 0
KGO1 110942Z 18006KT 21/18 A3014 RMK A01 T02080183  RH  085%=      5-min Rain = 0
KGO1 110943Z 18006KT 21/18 A3014 RMK A01 T02090184  RH  085%=      5-min Rain = 0
KGO1 110944Z 18007KT 21/18 A3014 RMK A01 T02090183  RH  085%=      5-min Rain = 0
KGO1 110945Z 18007KT 21/18 A3014 RMK A01 T02090184  RH  086%=      5-min Rain = 0
KGO1 110946Z 18007KT 21/18 A3014 RMK A01 T02090184  RH  086%=      5-min Rain = 0
KGO1 110947Z 18006KT 21/18 A3014 RMK A01 T02090184  RH  086%=      5-min Rain = 0
KGO1 110948Z 18006KT 21/18 A3014 RMK A01 T02090184  RH  086%=      5-min Rain = 0
KGO1 110949Z 17007KT 21/18 A3014 RMK A01 T02090184  RH  086%=      5-min Rain = 0
KGO1 110950Z 18007KT 21/18 A3014 RMK A01 T02090184  RH  086%=      5-min Rain = 0
KGO1 110951Z 17007KT 21/18 A3014 RMK A01 T02080183  RH  086%=      5-min Rain = 0
KGO1 110952Z 17007KT 21/18 A3014 RMK A01 T02080184  RH  086%=      5-min Rain = 0
KGO1 110953Z 18007KT 21/18 A3014 RMK A01 T02080184  RH  086%=      5-min Rain = 0
KGO1 110954Z 18007KT 21/18 A3014 RMK A01 T02080184  RH  086%=      5-min Rain = 0
KGO1 110955Z 18007KT 21/18 A3014 RMK A01 T02090184  RH  086%=      5-min Rain = 0
KGO1 110956Z 18007KT 21/18 A3014 RMK A01 T02090184  RH  086%=      5-min Rain = 0
KGO1 110957Z 18007KT 21/19 A3014 RMK A01 T02090185  RH  086%=      5-min Rain = 0
KGO1 110958Z 19007KT 21/19 A3014 RMK A01 T02090185  RH  086%=      5-min Rain = 0
KGO1 110959Z 19006KT 21/19 A3014 RMK A01 T02100185  RH  086%=      5-min Rain = 0
KGO1 111000Z 18006KT 21/19 A3014 RMK A01 T02100185  RH  086%=      5-min Rain = 0
KGO1 111001Z 18006KT 21/19 A3014 RMK A01 T02100185  RH  086%=      5-min Rain = 0
KGO1 111002Z 18005KT 21/19 A3014 RMK A01 T02090185  RH  086%=      5-min Rain = 0
KGO1 111003Z 18006KT 21/19 A3014 RMK A01 T02100185  RH  086%=      5-min Rain = 0
KGO1 111004Z 17005KT 21/19 A3014 RMK A01 T02100185  RH  086%=      5-min Rain = 0
KGO1 111005Z 17005KT 21/19 A3014 RMK A01 T02100185  RH  086%=      5-min Rain = 0
KGO1 111006Z 17005KT 21/19 A3014 RMK A01 T02090185  RH  086%=      5-min Rain = 0
KGO1 111007Z 17005KT 21/18 A3014 RMK A01 T02090184  RH  086%=      5-min Rain = 0
KGO1 111008Z 18005KT 21/18 A3014 RMK A01 T02080184  RH  086%=      5-min Rain = 0
KGO1 111009Z 17005KT 21/18 A3014 RMK A01 T02080184  RH  086%=      5-min Rain = 0
KGO1 111010Z 17005KT 21/18 A3014 RMK A01 T02080184  RH  086%=      5-min Rain = 0
KGO1 111011Z 17004KT 21/18 A3014 RMK A01 T02080184  RH  086%=      5-min Rain = 0
KGO1 111012Z 17004KT 21/18 A3014 RMK A01 T02080184  RH  086%=      5-min Rain = 0
KGO1 111013Z 17004KT 21/18 A3014 RMK A01 T02080184  RH  086%=      5-min Rain = 0
KGO1 111014Z 17005KT 21/18 A3014 RMK A01 T02080184  RH  086%=      5-min Rain = 0
KGO1 111015Z 17004KT 21/18 A3014 RMK A01 T02080184  RH  086%=      5-min Rain = 0
KGO1 111016Z 17004KT 21/18 A3014 RMK A01 T02080184  RH  086%=      5-min Rain = 0
KGO1 111017Z 17004KT 21/18 A3014 RMK A01 T02080184  RH  086%=      5-min Rain = 0
KGO1 111018Z 17005KT 21/18 A3014 RMK A01 T02070184  RH  086%=      5-min Rain = 0
KGO1 111019Z 17005KT 21/18 A3014 RMK A01 T02070184  RH  086%=      5-min Rain = 0
KGO1 111020Z 17005KT 21/18 A3014 RMK A01 T02070184  RH  086%=      5-min Rain = 0
KGO1 111021Z 17005KT 21/18 A3014 RMK A01 T02070184  RH  086%=      5-min Rain = 0
KGO1 111022Z 18005KT 21/18 A3014 RMK A01 T02070184  RH  086%=      5-min Rain = 0
KGO1 111023Z 18005KT 21/18 A3014 RMK A01 T02070183  RH  086%=      5-min Rain = 0
KGO1 111024Z 18005KT 21/18 A3013 RMK A01 T02070184  RH  086%=      5-min Rain = 0
KGO1 111025Z 18005KT 21/18 A3013 RMK A01 T02070184  RH  086%=      5-min Rain = 0
KGO1 111026Z 18005KT 21/18 A3013 RMK A01 T02070184  RH  086%=      5-min Rain = 0
KGO1 111027Z 18004KT 21/18 A3013 RMK A01 T02070184  RH  086%=      5-min Rain = 0
KGO1 111028Z 18005KT 21/18 A3013 RMK A01 T02070184  RH  086%=      5-min Rain = 0
KGO1 111029Z 18005KT 21/18 A3013 RMK A01 T02070184  RH  086%=      5-min Rain = 0
KGO1 111030Z 18004KT 21/18 A3013 RMK A01 T02070184  RH  086%=      5-min Rain = 0
KGO1 111031Z 18004KT 21/18 A3013 RMK A01 T02070184  RH  086%=      5-min Rain = 0
KGO1 111032Z 18004KT 21/18 A3013 RMK A01 T02070184  RH  086%=      5-min Rain = 0
KGO1 111033Z 18004KT 21/18 A3013 RMK A01 T02070184  RH  086%=      5-min Rain = 0
KGO1 111034Z 17004KT 21/18 A3013 RMK A01 T02070183  RH  086%=      5-min Rain = 0
KGO1 111035Z 17004KT 21/18 A3013 RMK A01 T02070183  RH  086%=      5-min Rain = 0
KGO1 111036Z 17004KT 21/18 A3014 RMK A01 T02070183  RH  086%=      5-min Rain = 0
KGO1 111037Z 15004KT 21/18 A3014 RMK A01 T02060183  RH  086%=      5-min Rain = 0
KGO1 111038Z 14004KT 21/18 A3014 RMK A01 T02060183  RH  087%=      5-min Rain = 0
KGO1 111039Z 14004KT 21/18 A3014 RMK A01 T02060183  RH  087%=      5-min Rain = 0
KGO1 111040Z 14003KT 21/18 A3014 RMK A01 T02050184  RH  088%=      5-min Rain = 0
KGO1 111041Z 14004KT 20/18 A3014 RMK A01 T02040184  RH  089%=      5-min Rain = 0
KGO1 111042Z 15004KT 20/18 A3014 RMK A01 T02020184  RH  089%=      5-min Rain = 0
KGO1 111043Z 15004KT 20/18 A3014 RMK A01 T02010184  RH  090%=      5-min Rain = 0
KGO1 111044Z 15004KT 20/19 A3014 RMK A01 T02010185  RH  090%=      5-min Rain = 0
KGO1 111045Z 15004KT 20/19 A3014 RMK A01 T02010185  RH  090%=      5-min Rain = 0
KGO1 111046Z 15004KT 20/19 A3014 RMK A01 T02010185  RH  091%=      5-min Rain = 0
KGO1 111047Z 15003KT 20/19 A3014 RMK A01 T02000185  RH  091%=      5-min Rain = 0
KGO1 111048Z 15003KT 20/19 A3014 RMK A01 T02000185  RH  091%=      5-min Rain = 0
KGO1 111049Z 16003KT 20/19 A3014 RMK A01 T02000185  RH  091%=      5-min Rain = 0
KGO1 111050Z 16003KT 20/19 A3014 RMK A01 T02000185  RH  091%=      5-min Rain = 0
KGO1 111051Z 16002KT 20/19 A3014 RMK A01 T02000185  RH  091%=      5-min Rain = 0
KGO1 111052Z 16001KT 20/18 A3014 RMK A01 T01990184  RH  091%=      5-min Rain = 0
KGO1 111053Z 17001KT 20/18 A3014 RMK A01 T01980184  RH  091%=      5-min Rain = 0
KGO1 111054Z 18001KT 20/18 A3014 RMK A01 T01980184  RH  092%=      5-min Rain = 0
KGO1 111055Z 18001KT 20/18 A3014 RMK A01 T01970184  RH  092%=      5-min Rain = 0
KGO1 111056Z 00000KT 20/18 A3014 RMK A01 T01970184  RH  092%=      5-min Rain = 0
KGO1 111057Z 00000KT 20/18 A3014 RMK A01 T01970184  RH  092%=      5-min Rain = 0
KGO1 111058Z 22000KT 20/18 A3014 RMK A01 T01980184  RH  092%=      5-min Rain = 0
KGO1 111059Z 22000KT 20/19 A3014 RMK A01 T01980185  RH  092%=      5-min Rain = 0
KGO1 111100Z 24000KT 20/19 A3014 RMK A01 T01990185  RH  092%=      5-min Rain = 0
KGO1 111101Z 25001KT 20/19 A3014 RMK A01 T01990185  RH  091%=      5-min Rain = 0
KGO1 111102Z 25000KT 20/19 A3014 RMK A01 T02000185  RH  091%=      5-min Rain = 0
KGO1 111103Z 26001KT 20/19 A3014 RMK A01 T02010185  RH  091%=      5-min Rain = 0
KGO1 111104Z 27001KT 20/18 A3014 RMK A01 T02010184  RH  090%=      5-min Rain = 0
KGO1 111105Z 26001KT 20/18 A3014 RMK A01 T02010184  RH  090%=      5-min Rain = 0
KGO1 111106Z 26001KT 20/18 A3014 RMK A01 T02010184  RH  090%=      5-min Rain = 0
KGO1 111107Z 25001KT 20/18 A3014 RMK A01 T02020184  RH  090%=      5-min Rain = 0
KGO1 111108Z 24001KT 20/18 A3014 RMK A01 T02030184  RH  089%=      5-min Rain = 0
KGO1 111109Z 24001KT 20/18 A3014 RMK A01 T02040184  RH  088%=      5-min Rain = 0
KGO1 111110Z 23001KT 21/18 A3014 RMK A01 T02050184  RH  088%=      5-min Rain = 0
KGO1 111111Z 22001KT 21/18 A3014 RMK A01 T02050184  RH  087%=      5-min Rain = 0
KGO1 111112Z 22001KT 21/18 A3014 RMK A01 T02060184  RH  087%=      5-min Rain = 0
KGO1 111113Z 22001KT 21/18 A3014 RMK A01 T02060184  RH  087%=      5-min Rain = 0
KGO1 111114Z 22001KT 21/18 A3014 RMK A01 T02070184  RH  087%=      5-min Rain = 0
KGO1 111115Z 22001KT 21/18 A3014 RMK A01 T02070184  RH  087%=      5-min Rain = 0
KGO1 111116Z 22001KT 21/18 A3014 RMK A01 T02080184  RH  086%=      5-min Rain = 0
KGO1 111117Z 22001KT 21/18 A3014 RMK A01 T02080184  RH  086%=      5-min Rain = 0
KGO1 111118Z 21002KT 21/18 A3014 RMK A01 T02080184  RH  086%=      5-min Rain = 0
KGO1 111119Z 22002KT 21/18 A3014 RMK A01 T02090184  RH  086%=      5-min Rain = 0
KGO1 111120Z 22002KT 21/18 A3014 RMK A01 T02090184  RH  085%=      5-min Rain = 0
KGO1 111121Z 22002KT 21/18 A3014 RMK A01 T02100184  RH  085%=      5-min Rain = 0
KGO1 111122Z 23002KT 21/18 A3013 RMK A01 T02100184  RH  085%=      5-min Rain = 0
KGO1 111123Z 22002KT 21/18 A3013 RMK A01 T02100184  RH  085%=      5-min Rain = 0
KGO1 111124Z 22002KT 21/18 A3013 RMK A01 T02100184  RH  085%=      5-min Rain = 0
KGO1 111125Z 22002KT 21/18 A3013 RMK A01 T02100184  RH  085%=      5-min Rain = 0
KGO1 111126Z 21002KT 21/18 A3013 RMK A01 T02100183  RH  085%=      5-min Rain = 0
KGO1 111127Z 21002KT 21/18 A3013 RMK A01 T02110183  RH  084%=      5-min Rain = 0
KGO1 111128Z 21002KT 21/18 A3014 RMK A01 T02110184  RH  084%=      5-min Rain = 0
KGO1 111129Z 20001KT 21/18 A3014 RMK A01 T02110183  RH  084%=      5-min Rain = 0
KGO1 111130Z 20002KT 21/18 A3014 RMK A01 T02110183  RH  084%=      5-min Rain = 0
KGO1 111131Z 20001KT 21/18 A3014 RMK A01 T02110184  RH  084%=      5-min Rain = 0
KGO1 111132Z 20001KT 21/18 A3014 RMK A01 T02110183  RH  084%=      5-min Rain = 0
KGO1 111133Z 20001KT 21/18 A3014 RMK A01 T02110183  RH  084%=      5-min Rain = 0
KGO1 111134Z 20001KT 21/18 A3014 RMK A01 T02110184  RH  084%=      5-min Rain = 0
KGO1 111135Z 20001KT 21/18 A3014 RMK A01 T02110184  RH  084%=      5-min Rain = 0
KGO1 111136Z 20001KT 21/18 A3014 RMK A01 T02110184  RH  084%=      5-min Rain = 0
KGO1 111137Z 19001KT 21/18 A3014 RMK A01 T02100183  RH  085%=      5-min Rain = 0
KGO1 111138Z 19001KT 21/18 A3014 RMK A01 T02100183  RH  085%=      5-min Rain = 0
KGO1 111139Z 19001KT 21/18 A3014 RMK A01 T02100184  RH  085%=      5-min Rain = 0
KGO1 111140Z 19001KT 21/18 A3014 RMK A01 T02100183  RH  085%=      5-min Rain = 0
KGO1 111141Z 19001KT 21/18 A3014 RMK A01 T02100184  RH  085%=      5-min Rain = 0
KGO1 111142Z 18001KT 21/18 A3014 RMK A01 T02100183  RH  085%=      5-min Rain = 0
KGO1 111143Z 18001KT 21/18 A3014 RMK A01 T02090183  RH  085%=      5-min Rain = 0
KGO1 111144Z 18001KT 21/18 A3014 RMK A01 T02090184  RH  085%=      5-min Rain = 0
KGO1 111145Z 18001KT 21/18 A3014 RMK A01 T02100184  RH  085%=      5-min Rain = 0
KGO1 111146Z 18001KT 21/18 A3014 RMK A01 T02100184  RH  085%=      5-min Rain = 0
KGO1 111147Z 19001KT 21/18 A3014 RMK A01 T02100184  RH  085%=      5-min Rain = 0
KGO1 111148Z 19001KT 21/18 A3014 RMK A01 T02090183  RH  085%=      5-min Rain = 0
KGO1 111149Z 19001KT 21/18 A3014 RMK A01 T02090184  RH  085%=      5-min Rain = 0
KGO1 111150Z 19001KT 21/18 A3014 RMK A01 T02090183  RH  085%=      5-min Rain = 0
KGO1 111151Z 19001KT 21/18 A3014 RMK A01 T02090184  RH  085%=      5-min Rain = 0
KGO1 111152Z 19001KT 21/18 A3014 RMK A01 T02090184  RH  085%=      5-min Rain = 0
KGO1 111153Z 19001KT 21/18 A3014 RMK A01 T02090184  RH  085%=      5-min Rain = 0
KGO1 111154Z 19001KT 21/18 A3014 RMK A01 T02080183  RH  085%=      5-min Rain = 0
KGO1 111155Z 19001KT 21/18 A3014 RMK A01 T02090183  RH  085%=      5-min Rain = 0
KGO1 111156Z 18001KT 21/18 A3014 RMK A01 T02080183  RH  085%=      5-min Rain = 0
KGO1 111157Z 18001KT 21/18 A3014 RMK A01 T02070182  RH  086%=      5-min Rain = 0
KGO1 111158Z 18001KT 21/18 A3014 RMK A01 T02050182  RH  086%=      5-min Rain = 0
KGO1 111159Z 18001KT 20/18 A3014 RMK A01 T02040182  RH  087%=      5-min Rain = 0
KGO1 111200Z 18001KT 20/18 A3014 RMK A01 T02030183  RH  088%=      5-min Rain = 0
KGO1 111201Z 17001KT 20/18 A3014 RMK A01 T02020182  RH  089%=      5-min Rain = 0
KGO1 111202Z 17001KT 20/18 A3014 RMK A01 T02010182  RH  089%=      5-min Rain = 0
KGO1 111203Z 17002KT 20/18 A3014 RMK A01 T02010182  RH  089%=      5-min Rain = 0
KGO1 111204Z 18002KT 20/18 A3014 RMK A01 T02010183  RH  089%=      5-min Rain = 0
KGO1 111205Z 18002KT 20/18 A3014 RMK A01 T02010183  RH  089%=      5-min Rain = 0
KGO1 111206Z 18002KT 20/18 A3014 RMK A01 T02010183  RH  089%=      5-min Rain = 0
KGO1 111207Z 18002KT 20/18 A3014 RMK A01 T02020183  RH  089%=      5-min Rain = 0
KGO1 111208Z 18002KT 20/18 A3014 RMK A01 T02020183  RH  089%=      5-min Rain = 0
KGO1 111209Z 20001KT 20/18 A3014 RMK A01 T02030184  RH  088%=      5-min Rain = 0
KGO1 111210Z 30000KT 20/18 A3014 RMK A01 T02040184  RH  088%=      5-min Rain = 0
KGO1 111211Z 30001KT 21/18 A3014 RMK A01 T02050184  RH  088%=      5-min Rain = 0
KGO1 111212Z 31001KT 21/18 A3014 RMK A01 T02060184  RH  087%=      5-min Rain = 0
KGO1 111213Z 32001KT 21/18 A3014 RMK A01 T02070184  RH  087%=      5-min Rain = 0
KGO1 111214Z 01001KT 21/18 A3014 RMK A01 T02070184  RH  087%=      5-min Rain = 0
KGO1 111215Z 01001KT 21/18 A3014 RMK A01 T02080184  RH  086%=      5-min Rain = 0
KGO1 111216Z 01000KT 21/18 A3014 RMK A01 T02080184  RH  086%=      5-min Rain = 0
KGO1 111217Z 01000KT 21/18 A3014 RMK A01 T02080184  RH  086%=      5-min Rain = 0
KGO1 111218Z 01000KT 21/18 A3014 RMK A01 T02090184  RH  086%=      5-min Rain = 0
KGO1 111219Z 01000KT 21/18 A3014 RMK A01 T02090184  RH  085%=      5-min Rain = 0
KGO1 111220Z 02001KT 21/18 A3015 RMK A01 T02090184  RH  085%=      5-min Rain = 0
KGO1 111221Z 02000KT 21/18 A3015 RMK A01 T02090184  RH  085%=      5-min Rain = 0
KGO1 111222Z 15000KT 21/18 A3015 RMK A01 T02100184  RH  085%=      5-min Rain = 0
KGO1 111223Z 14001KT 21/18 A3015 RMK A01 T02090184  RH  085%=      5-min Rain = 0
KGO1 111224Z 14001KT 21/18 A3015 RMK A01 T02090184  RH  085%=      5-min Rain = 0
KGO1 111225Z 14001KT 21/18 A3015 RMK A01 T02100184  RH  085%=      5-min Rain = 0
KGO1 111226Z 14002KT 21/18 A3015 RMK A01 T02100184  RH  085%=      5-min Rain = 0
KGO1 111227Z 14002KT 21/18 A3015 RMK A01 T02100183  RH  085%=      5-min Rain = 0
KGO1 111228Z 14002KT 21/18 A3015 RMK A01 T02100183  RH  085%=      5-min Rain = 0
KGO1 111229Z 14002KT 21/18 A3015 RMK A01 T02100183  RH  085%=      5-min Rain = 0
KGO1 111230Z 15002KT 21/18 A3015 RMK A01 T02100184  RH  085%=      5-min Rain = 0
KGO1 111231Z 14002KT 21/19 A3015 RMK A01 T02090185  RH  086%=      5-min Rain = 0
KGO1 111232Z 15003KT 21/19 A3015 RMK A01 T02080185  RH  087%=      5-min Rain = 0
KGO1 111233Z 15002KT 21/19 A3015 RMK A01 T02070185  RH  087%=      5-min Rain = 0
KGO1 111234Z 14002KT 21/19 A3015 RMK A01 T02070185  RH  088%=      5-min Rain = 0
KGO1 111235Z 14002KT 21/19 A3015 RMK A01 T02070185  RH  088%=      5-min Rain = 0
KGO1 111236Z 13002KT 21/19 A3015 RMK A01 T02070186  RH  088%=      5-min Rain = 0
KGO1 111237Z 14002KT 21/19 A3015 RMK A01 T02070185  RH  088%=      5-min Rain = 0
KGO1 111238Z 14002KT 21/19 A3015 RMK A01 T02070185  RH  087%=      5-min Rain = 0
KGO1 111239Z 13002KT 21/19 A3015 RMK A01 T02070185  RH  087%=      5-min Rain = 0
KGO1 111240Z 13002KT 21/19 A3015 RMK A01 T02080185  RH  087%=      5-min Rain = 0
KGO1 111241Z 12003KT 21/19 A3015 RMK A01 T02080185  RH  086%=      5-min Rain = 0
KGO1 111242Z 11003KT 21/19 A3015 RMK A01 T02080185  RH  086%=      5-min Rain = 0
KGO1 111243Z 10003KT 21/19 A3015 RMK A01 T02080185  RH  086%=      5-min Rain = 0
KGO1 111244Z 10003KT 21/19 A3015 RMK A01 T02080185  RH  086%=      5-min Rain = 0
KGO1 111245Z 10003KT 21/18 A3015 RMK A01 T02080184  RH  086%=      5-min Rain = 0
KGO1 111246Z 10003KT 21/19 A3015 RMK A01 T02080185  RH  086%=      5-min Rain = 0
KGO1 111247Z 10003KT 21/18 A3015 RMK A01 T02080184  RH  086%=      5-min Rain = 0
KGO1 111248Z 09003KT 21/18 A3015 RMK A01 T02080184  RH  086%=      5-min Rain = 0
KGO1 111249Z 09003KT 21/19 A3015 RMK A01 T02090185  RH  086%=      5-min Rain = 0
KGO1 111250Z 09004KT 21/19 A3015 RMK A01 T02090186  RH  087%=      5-min Rain = 0
KGO1 111251Z 09004KT 21/19 A3015 RMK A01 T02090186  RH  087%=      5-min Rain = 0
KGO1 111252Z 09004KT 21/19 A3015 RMK A01 T02090186  RH  087%=      5-min Rain = 0
KGO1 111253Z 09004KT 21/19 A3015 RMK A01 T02100187  RH  087%=      5-min Rain = 0
KGO1 111254Z 09004KT 21/19 A3015 RMK A01 T02100187  RH  087%=      5-min Rain = 0
KGO1 111255Z 09004KT 21/19 A3015 RMK A01 T02110187  RH  086%=      5-min Rain = 0
KGO1 111256Z 09003KT 21/19 A3015 RMK A01 T02120188  RH  086%=      5-min Rain = 0
KGO1 111257Z 09003KT 21/19 A3015 RMK A01 T02120189  RH  086%=      5-min Rain = 0
KGO1 111258Z 09003KT 21/19 A3015 RMK A01 T02130189  RH  086%=      5-min Rain = 0
KGO1 111259Z 09003KT 22/19 A3015 RMK A01 T02150189  RH  086%=      5-min Rain = 0
KGO1 111300Z 10003KT 22/19 A3015 RMK A01 T02160190  RH  085%=      5-min Rain = 0
KGO1 111301Z 10003KT 22/19 A3015 RMK A01 T02170190  RH  085%=      5-min Rain = 0
KGO1 111302Z 10003KT 22/19 A3015 RMK A01 T02180190  RH  084%=      5-min Rain = 0
KGO1 111303Z 10003KT 22/19 A3016 RMK A01 T02190192  RH  085%=      5-min Rain = 0
KGO1 111304Z 11003KT 22/19 A3016 RMK A01 T02210191  RH  083%=      5-min Rain = 0
KGO1 111305Z 11002KT 22/19 A3016 RMK A01 T02220190  RH  082%=      5-min Rain = 0
KGO1 111306Z 11002KT 22/19 A3016 RMK A01 T02220189  RH  082%=      5-min Rain = 0
KGO1 111307Z 11002KT 22/19 A3016 RMK A01 T02230190  RH  082%=      5-min Rain = 0
KGO1 111308Z 11002KT 22/19 A3016 RMK A01 T02230189  RH  081%=      5-min Rain = 0
KGO1 111309Z 11003KT 22/19 A3016 RMK A01 T02240191  RH  082%=      5-min Rain = 0
KGO1 111310Z 11003KT 22/19 A3016 RMK A01 T02240190  RH  081%=      5-min Rain = 0
KGO1 111311Z 11002KT 23/19 A3016 RMK A01 T02250190  RH  081%=      5-min Rain = 0
KGO1 111312Z 11003KT 23/19 A3016 RMK A01 T02250191  RH  081%=      5-min Rain = 0
KGO1 111313Z 11003KT 22/19 A3016 RMK A01 T02240188  RH  080%=      5-min Rain = 0
KGO1 111314Z 11003KT 22/19 A3016 RMK A01 T02230187  RH  080%=      5-min Rain = 0
KGO1 111315Z 11003KT 22/19 A3016 RMK A01 T02210188  RH  082%=      5-min Rain = 0
KGO1 111316Z 11002KT 22/19 A3016 RMK A01 T02200191  RH  083%=      5-min Rain = 0
KGO1 111317Z 11003KT 22/19 A3016 RMK A01 T02190192  RH  084%=      5-min Rain = 0
KGO1 111318Z 12003KT 22/19 A3016 RMK A01 T02190191  RH  084%=      5-min Rain = 0
KGO1 111319Z 12003KT 22/19 A3016 RMK A01 T02180190  RH  084%=      5-min Rain = 0
KGO1 111320Z 12002KT 22/19 A3016 RMK A01 T02180189  RH  083%=      5-min Rain = 0
KGO1 111321Z 12002KT 22/19 A3016 RMK A01 T02180191  RH  085%=      5-min Rain = 0
KGO1 111322Z 12002KT 22/19 A3016 RMK A01 T02180192  RH  085%=      5-min Rain = 0
KGO1 111323Z 12002KT 22/20 A3016 RMK A01 T02190195  RH  086%=      5-min Rain = 0
KGO1 111324Z 12002KT 22/20 A3016 RMK A01 T02200196  RH  086%=      5-min Rain = 0
KGO1 111325Z 12002KT 22/20 A3016 RMK A01 T02220195  RH  085%=      5-min Rain = 0
KGO1 111326Z 11002KT 22/19 A3016 RMK A01 T02240189  RH  081%=      5-min Rain = 0
KGO1 111327Z 12002KT 23/19 A3016 RMK A01 T02250190  RH  081%=      5-min Rain = 0
KGO1 111328Z 12002KT 23/19 A3016 RMK A01 T02260189  RH  079%=      5-min Rain = 0
KGO1 111329Z 13001KT 23/19 A3016 RMK A01 T02280190  RH  079%=      5-min Rain = 0
KGO1 111330Z 13001KT 23/19 A3016 RMK A01 T02290190  RH  079%=      5-min Rain = 0
KGO1 111331Z 10001KT 23/19 A3016 RMK A01 T02310191  RH  078%=      5-min Rain = 0
KGO1 111332Z 13001KT 23/19 A3016 RMK A01 T02330190  RH  077%=      5-min Rain = 0
KGO1 111333Z 15001KT 23/19 A3016 RMK A01 T02340190  RH  076%=      5-min Rain = 0
KGO1 111334Z 16002KT 24/19 A3016 RMK A01 T02350191  RH  077%=      5-min Rain = 0
KGO1 111335Z 15001KT 24/19 A3016 RMK A01 T02350191  RH  076%=      5-min Rain = 0
KGO1 111336Z 16002KT 24/19 A3016 RMK A01 T02350191  RH  076%=      5-min Rain = 0
KGO1 111337Z 15001KT 24/19 A3016 RMK A01 T02350192  RH  077%=      5-min Rain = 0
KGO1 111338Z 15002KT 24/19 A3016 RMK A01 T02360191  RH  076%=      5-min Rain = 0
KGO1 111339Z 17002KT 24/19 A3016 RMK A01 T02370188  RH  074%=      5-min Rain = 0
KGO1 111340Z 16002KT 24/19 A3016 RMK A01 T02380191  RH  075%=      5-min Rain = 0
KGO1 111341Z 16002KT 24/19 A3016 RMK A01 T02400185  RH  071%=      5-min Rain = 0
KGO1 111342Z 15002KT 24/19 A3016 RMK A01 T02410188  RH  072%=      5-min Rain = 0
KGO1 111343Z 16002KT 24/19 A3016 RMK A01 T02410186  RH  071%=      5-min Rain = 0
KGO1 111344Z 16002KT 24/19 A3016 RMK A01 T02420185  RH  070%=      5-min Rain = 0
KGO1 111345Z 15002KT 24/18 A3016 RMK A01 T02430184  RH  070%=      5-min Rain = 0
KGO1 111346Z 15002KT 24/19 A3016 RMK A01 T02430185  RH  070%=      5-min Rain = 0
KGO1 111347Z 16003KT 24/18 A3016 RMK A01 T02440184  RH  069%=      5-min Rain = 0
KGO1 111348Z 16003KT 24/18 A3016 RMK A01 T02440181  RH  068%=      5-min Rain = 0
KGO1 111349Z 16004KT 25/18 A3016 RMK A01 T02450182  RH  068%=      5-min Rain = 0
KGO1 111350Z 18003KT 25/18 A3016 RMK A01 T02450182  RH  068%=      5-min Rain = 0
KGO1 111351Z 15003KT 25/18 A3016 RMK A01 T02450181  RH  068%=      5-min Rain = 0
KGO1 111352Z 16003KT 25/18 A3016 RMK A01 T02450182  RH  068%=      5-min Rain = 0
KGO1 111353Z 15003KT 25/18 A3016 RMK A01 T02460183  RH  068%=      5-min Rain = 0
KGO1 111354Z 17005KT 25/18 A3016 RMK A01 T02470181  RH  067%=      5-min Rain = 0
KGO1 111355Z 17004KT 25/18 A3016 RMK A01 T02480180  RH  066%=      5-min Rain = 0
KGO1 111356Z 17003KT 25/18 A3016 RMK A01 T02480182  RH  067%=      5-min Rain = 0
KGO1 111357Z 17003KT 25/18 A3016 RMK A01 T02490182  RH  067%=      5-min Rain = 0
KGO1 111358Z 17004KT 25/18 A3016 RMK A01 T02500183  RH  066%=      5-min Rain = 0
KGO1 111359Z 17005KT 25/18 A3016 RMK A01 T02500181  RH  065%=      5-min Rain = 0
KGO1 111400Z 17004KT 25/18 A3016 RMK A01 T02510181  RH  065%=      5-min Rain = 0
KGO1 111401Z 17003KT 25/18 A3016 RMK A01 T02510182  RH  066%=      5-min Rain = 0
KGO1 111402Z 17004KT 25/18 A3016 RMK A01 T02510181  RH  065%=      5-min Rain = 0
KGO1 111403Z 17003KT 25/18 A3016 RMK A01 T02510183  RH  066%=      5-min Rain = 0
KGO1 111404Z 16004KT 25/18 A3016 RMK A01 T02520182  RH  065%=      5-min Rain = 0
KGO1 111405Z 16005KT 25/18 A3016 RMK A01 T02530183  RH  065%=      5-min Rain = 0
KGO1 111406Z 17005KT 25/19 A3016 RMK A01 T02540185  RH  065%=      5-min Rain = 0
KGO1 111407Z 18006KT 26/18 A3016 RMK A01 T02550183  RH  064%=      5-min Rain = 0
KGO1 111408Z 19005KT 26/18 A3016 RMK A01 T02550181  RH  064%=      5-min Rain = 0
KGO1 111409Z 19005KT 26/18 A3016 RMK A01 T02550184  RH  065%=      5-min Rain = 0
KGO1 111410Z 18005KT 26/18 A3016 RMK A01 T02550180  RH  063%=      5-min Rain = 0
KGO1 111411Z 18005KT 26/18 A3016 RMK A01 T02550183  RH  064%=      5-min Rain = 0
KGO1 111412Z 18005KT 26/18 A3016 RMK A01 T02560184  RH  065%=      5-min Rain = 0
KGO1 111413Z 17005KT 26/19 A3016 RMK A01 T02570185  RH  064%=      5-min Rain = 0
KGO1 111414Z 18006KT 26/19 A3016 RMK A01 T02580186  RH  064%=      5-min Rain = 0
KGO1 111415Z 18007KT 26/18 A3016 RMK A01 T02590184  RH  063%=      5-min Rain = 0
KGO1 111416Z 20006KT 26/19 A3016 RMK A01 T02590185  RH  064%=      5-min Rain = 0
KGO1 111417Z 19005KT 26/19 A3016 RMK A01 T02600187  RH  064%=      5-min Rain = 0
KGO1 111418Z 18005KT 26/19 A3016 RMK A01 T02600187  RH  064%=      5-min Rain = 0
KGO1 111419Z 18004KT 26/18 A3017 RMK A01 T02610184  RH  063%=      5-min Rain = 0
KGO1 111420Z 18006KT 26/19 A3017 RMK A01 T02600186  RH  064%=      5-min Rain = 0
KGO1 111421Z 19005KT 26/19 A3017 RMK A01 T02610187  RH  064%=      5-min Rain = 0
KGO1 111422Z 19005KT 26/18 A3017 RMK A01 T02600184  RH  063%=      5-min Rain = 0
KGO1 111423Z 19006KT 26/19 A3017 RMK A01 T02600187  RH  064%=      5-min Rain = 0
KGO1 111424Z 19008KT 26/18 A3017 RMK A01 T02610184  RH  062%=      5-min Rain = 0
KGO1 111425Z 18007KT 26/19 A3017 RMK A01 T02630185  RH  062%=      5-min Rain = 0
KGO1 111426Z 20007KT 27/18 A3017 RMK A01 T02650184  RH  061%=      5-min Rain = 0
KGO1 111427Z 18006KT 27/18 A3017 RMK A01 T02670180  RH  059%=      5-min Rain = 0
KGO1 111428Z 20009KT 27/18 A3017 RMK A01 T02690182  RH  059%=      5-min Rain = 0
KGO1 111429Z 21010KT 27/18 A3017 RMK A01 T02710182  RH  058%=      5-min Rain = 0
KGO1 111430Z 20009KT 27/18 A3017 RMK A01 T02730176  RH  055%=      5-min Rain = 0
KGO1 111431Z 21010KT 27/18 A3017 RMK A01 T02730177  RH  055%=      5-min Rain = 0
KGO1 111432Z 21009KT 27/18 A3017 RMK A01 T02730178  RH  056%=      5-min Rain = 0
KGO1 111433Z 21008KT 27/18 A3017 RMK A01 T02720179  RH  057%=      5-min Rain = 0
KGO1 111434Z 19011KT 27/18 A3017 RMK A01 T02740179  RH  056%=      5-min Rain = 0
KGO1 111435Z 19010KT 28/18 A3017 RMK A01 T02750176  RH  055%=      5-min Rain = 0
KGO1 111436Z 21009KT 28/18 A3017 RMK A01 T02750176  RH  054%=      5-min Rain = 0
KGO1 111437Z 20009KT 28/18 A3017 RMK A01 T02780179  RH  055%=      5-min Rain = 0
KGO1 111438Z 21011KT 28/17 A3017 RMK A01 T02810174  RH  052%=      5-min Rain = 0
KGO1 111439Z 20010KT 28/17 A3017 RMK A01 T02810169  RH  051%=      5-min Rain = 0
KGO1 111440Z 20011KT 28/17 A3017 RMK A01 T02790168  RH  051%=      5-min Rain = 0
KGO1 111441Z 19010KT 28/17 A3016 RMK A01 T02780171  RH  052%=      5-min Rain = 0
KGO1 111442Z 20011KT 28/17 A3016 RMK A01 T02780169  RH  052%=      5-min Rain = 0
KGO1 111443Z 19010KT 28/17 A3016 RMK A01 T02790170  RH  052%=      5-min Rain = 0
KGO1 111444Z 19010KT 28/17 A3016 RMK A01 T02790170  RH  051%=      5-min Rain = 0
KGO1 111445Z 21013KT 28/17 A3016 RMK A01 T02790166  RH  050%=      5-min Rain = 0
KGO1 111446Z 21012KT 28/16 A3016 RMK A01 T02780162  RH  049%=      5-min Rain = 0
KGO1 111447Z 21012KT 28/17 A3016 RMK A01 T02770166  RH  051%=      5-min Rain = 0
KGO1 111448Z 20011KT 28/17 A3016 RMK A01 T02780167  RH  051%=      5-min Rain = 0
KGO1 111449Z 19014KT 28/17 A3016 RMK A01 T02800166  RH  050%=      5-min Rain = 0
KGO1 111450Z 19013KT 28/16 A3016 RMK A01 T02820163  RH  048%=      5-min Rain = 0
KGO1 111451Z 19012KT 28/16 A3016 RMK A01 T02830163  RH  048%=      5-min Rain = 0
KGO1 111452Z 19012KT 28/17 A3016 RMK A01 T02840165  RH  049%=      5-min Rain = 0
KGO1 111453Z 19012KT 28/17 A3016 RMK A01 T02840165  RH  048%=      5-min Rain = 0
KGO1 111454Z 18013KT 29/17 A3016 RMK A01 T02860165  RH  048%=      5-min Rain = 0
KGO1 111455Z 19014KT 29/16 A3016 RMK A01 T02850164  RH  048%=      5-min Rain = 0
KGO1 111456Z 19012KT 28/16 A3016 RMK A01 T02820163  RH  048%=      5-min Rain = 0
KGO1 111457Z 19011KT 28/17 A3016 RMK A01 T02810165  RH  049%=      5-min Rain = 0
KGO1 111458Z 19011KT 28/16 A3016 RMK A01 T02800163  RH  049%=      5-min Rain = 0
KGO1 111459Z 19012KT 28/16 A3016 RMK A01 T02790164  RH  050%=      5-min Rain = 0
KGO1 111500Z 18014KT 28/16 A3016 RMK A01 T02790163  RH  049%=      5-min Rain = 0
KGO1 111501Z 18014KT 28/16 A3016 RMK A01 T02790161  RH  049%=      5-min Rain = 0
KGO1 111502Z 18013KT 28/16 A3016 RMK A01 T02780161  RH  049%=      5-min Rain = 0
KGO1 111503Z 19013KT 28/16 A3016 RMK A01 T02770162  RH  050%=      5-min Rain = 0
KGO1 111504Z 20012KT 28/16 A3016 RMK A01 T02760163  RH  050%=      5-min Rain = 0
KGO1 111505Z 20012KT 28/17 A3016 RMK A01 T02770165  RH  050%=      5-min Rain = 0
KGO1 111506Z 19011KT 28/16 A3016 RMK A01 T02790164  RH  050%=      5-min Rain = 0
KGO1 111507Z 18011KT 28/17 A3016 RMK A01 T02810166  RH  050%=      5-min Rain = 0
KGO1 111508Z 19011KT 28/17 A3016 RMK A01 T02820165  RH  049%=      5-min Rain = 0
KGO1 111509Z 20009KT 28/16 A3016 RMK A01 T02810164  RH  049%=      5-min Rain = 0
KGO1 111510Z 21010KT 28/17 A3016 RMK A01 T02800165  RH  050%=      5-min Rain = 0
KGO1 111511Z 20009KT 28/17 A3016 RMK A01 T02800165  RH  049%=      5-min Rain = 0
KGO1 111512Z 20008KT 28/17 A3016 RMK A01 T02810166  RH  050%=      5-min Rain = 0
KGO1 111513Z 19012G17KT 28/17 A3016 RMK A01 T02800165  RH  050%=      5-min Rain = 0
KGO1 111514Z 20013KT 28/16 A3016 RMK A01 T02820163  RH  049%=      5-min Rain = 0
KGO1 111515Z 20013KT 28/16 A3016 RMK A01 T02830162  RH  048%=      5-min Rain = 0
KGO1 111516Z 20013KT 28/16 A3016 RMK A01 T02830163  RH  048%=      5-min Rain = 0
KGO1 111517Z 19014KT 28/16 A3016 RMK A01 T02840160  RH  047%=      5-min Rain = 0
KGO1 111518Z 19013KT 29/16 A3016 RMK A01 T02860162  RH  047%=      5-min Rain = 0
KGO1 111519Z 19012KT 29/16 A3016 RMK A01 T02870162  RH  047%=      5-min Rain = 0
KGO1 111520Z 20013KT 29/16 A3016 RMK A01 T02880163  RH  047%=      5-min Rain = 0
KGO1 111521Z 20011KT 29/16 A3016 RMK A01 T02880162  RH  047%=      5-min Rain = 0
KGO1 111522Z 20011KT 29/16 A3016 RMK A01 T02860163  RH  047%=      5-min Rain = 0
KGO1 111523Z 18013KT 29/16 A3016 RMK A01 T02860163  RH  047%=      5-min Rain = 0
KGO1 111524Z 18013KT 29/16 A3016 RMK A01 T02860162  RH  047%=      5-min Rain = 0
KGO1 111525Z 19013KT 29/16 A3016 RMK A01 T02860161  RH  047%=      5-min Rain = 0
KGO1 111526Z 19012KT 29/16 A3016 RMK A01 T02860163  RH  047%=      5-min Rain = 0
KGO1 111527Z 20012KT 29/16 A3016 RMK A01 T02870164  RH  047%=      5-min Rain = 0
KGO1 111528Z 22011KT 29/16 A3016 RMK A01 T02890164  RH  047%=      5-min Rain = 0
KGO1 111529Z 21010KT 29/17 A3016 RMK A01 T02900169  RH  048%=      5-min Rain = 0
KGO1 111530Z 21011KT 29/17 A3016 RMK A01 T02920166  RH  047%=      5-min Rain = 0
KGO1 111531Z 18010KT 29/16 A3016 RMK A01 T02920164  RH  046%=      5-min Rain = 0
KGO1 111532Z 18013KT 29/17 A3016 RMK A01 T02900166  RH  047%=      5-min Rain = 0
KGO1 111533Z 19012KT 29/17 A3016 RMK A01 T02910165  RH  047%=      5-min Rain = 0
KGO1 111534Z 18011KT 29/17 A3016 RMK A01 T02900166  RH  047%=      5-min Rain = 0
KGO1 111535Z 17014KT 29/17 A3016 RMK A01 T02900168  RH  048%=      5-min Rain = 0
KGO1 111536Z 18012KT 29/17 A3016 RMK A01 T02930165  RH  046%=      5-min Rain = 0
KGO1 111537Z 17012KT 29/17 A3016 RMK A01 T02930165  RH  046%=      5-min Rain = 0
KGO1 111538Z 17013KT 29/16 A3016 RMK A01 T02920163  RH  046%=      5-min Rain = 0
KGO1 111539Z 17012KT 29/17 A3016 RMK A01 T02920165  RH  046%=      5-min Rain = 0
KGO1 111540Z 18012KT 29/16 A3016 RMK A01 T02930164  RH  046%=      5-min Rain = 0
KGO1 111541Z 18011KT 30/17 A3016 RMK A01 T02950168  RH  046%=      5-min Rain = 0
KGO1 111542Z 20013KT 30/17 A3016 RMK A01 T02980168  RH  046%=      5-min Rain = 0
KGO1 111543Z 17011KT 30/17 A3016 RMK A01 T02990169  RH  045%=      5-min Rain = 0
KGO1 111544Z 18008KT 30/17 A3016 RMK A01 T02970170  RH  047%=      5-min Rain = 0
KGO1 111545Z 18008KT 29/17 A3016 RMK A01 T02940174  RH  049%=      5-min Rain = 0
KGO1 111546Z 19013KT 29/17 A3016 RMK A01 T02930169  RH  047%=      5-min Rain = 0
KGO1 111547Z 20012KT 30/17 A3016 RMK A01 T02960165  RH  045%=      5-min Rain = 0
KGO1 111548Z 20008KT 30/17 A3016 RMK A01 T02970165  RH  045%=      5-min Rain = 0
KGO1 111549Z 19007KT 30/17 A3016 RMK A01 T02970168  RH  046%=      5-min Rain = 0
KGO1 111550Z 15010KT 30/17 A3015 RMK A01 T02990166  RH  045%=      5-min Rain = 0
KGO1 111551Z 17012KT 30/17 A3015 RMK A01 T02990170  RH  046%=      5-min Rain = 0
KGO1 111552Z 17013KT 30/17 A3015 RMK A01 T03010166  RH  044%=      5-min Rain = 0
KGO1 111553Z 15010KT 30/17 A3015 RMK A01 T02990165  RH  044%=      5-min Rain = 0
KGO1 111554Z 17010KT 30/17 A3015 RMK A01 T02970168  RH  046%=      5-min Rain = 0
KGO1 111555Z 17012KT 30/17 A3015 RMK A01 T02980168  RH  046%=      5-min Rain = 0
KGO1 111556Z 16012KT 30/17 A3015 RMK A01 T02980168  RH  046%=      5-min Rain = 0
KGO1 111557Z 16012KT 30/17 A3015 RMK A01 T02970168  RH  046%=      5-min Rain = 0
KGO1 111558Z 16012KT 30/17 A3015 RMK A01 T02950167  RH  046%=      5-min Rain = 0
KGO1 111559Z 17010KT 29/17 A3016 RMK A01 T02940170  RH  047%=      5-min Rain = 0
KGO1 111600Z 17012KT 30/17 A3016 RMK A01 T02960169  RH  046%=      5-min Rain = 0
KGO1 111601Z 16012KT 30/17 A3016 RMK A01 T02950170  RH  047%=      5-min Rain = 0
KGO1 111602Z 17010KT 30/17 A3016 RMK A01 T02960170  RH  047%=      5-min Rain = 0
KGO1 111603Z 17012KT 30/17 A3016 RMK A01 T02990171  RH  046%=      5-min Rain = 0
KGO1 111604Z 19012KT 30/17 A3015 RMK A01 T03010169  RH  045%=      5-min Rain = 0
KGO1 111605Z 16011KT 30/17 A3016 RMK A01 T03010170  RH  046%=      5-min Rain = 0
KGO1 111606Z 17010KT 30/17 A3016 RMK A01 T03010170  RH  045%=      5-min Rain = 0
KGO1 111607Z 16010KT 30/17 A3016 RMK A01 T03020169  RH  045%=      5-min Rain = 0
KGO1 111608Z 15012KT 30/17 A3016 RMK A01 T03020169  RH  045%=      5-min Rain = 0
KGO1 111609Z 15012KT 30/17 A3016 RMK A01 T03000169  RH  045%=      5-min Rain = 0
KGO1 111610Z 19012KT 30/17 A3016 RMK A01 T03010168  RH  045%=      5-min Rain = 0
KGO1 111611Z 19010KT 30/17 A3015 RMK A01 T03020166  RH  044%=      5-min Rain = 0
KGO1 111612Z 17012KT 30/17 A3015 RMK A01 T03040168  RH  044%=      5-min Rain = 0
KGO1 111613Z 17012KT 31/17 A3015 RMK A01 T03050165  RH  043%=      5-min Rain = 0
KGO1 111614Z 17011KT 30/17 A3015 RMK A01 T03020167  RH  044%=      5-min Rain = 0
KGO1 111615Z 18013KT 30/17 A3015 RMK A01 T03020169  RH  045%=      5-min Rain = 0
KGO1 111616Z 16015KT 30/17 A3015 RMK A01 T03030167  RH  044%=      5-min Rain = 0
KGO1 111617Z 16013KT 30/17 A3015 RMK A01 T03030166  RH  044%=      5-min Rain = 0
KGO1 111618Z 16014KT 30/17 A3015 RMK A01 T03010166  RH  044%=      5-min Rain = 0
KGO1 111619Z 17014KT 30/17 A3015 RMK A01 T03010166  RH  044%=      5-min Rain = 0
KGO1 111620Z 17012G21KT 30/17 A3015 RMK A01 T03010167  RH  045%=      5-min Rain = 0
KGO1 111621Z 17013KT 30/17 A3015 RMK A01 T03020166  RH  044%=      5-min Rain = 0
KGO1 111622Z 16012KT 30/17 A3015 RMK A01 T03020166  RH  044%=      5-min Rain = 0
KGO1 111623Z 17011G16KT 30/17 A3015 RMK A01 T03020168  RH  045%=      5-min Rain = 0
KGO1 111624Z 16014KT 31/17 A3015 RMK A01 T03050170  RH  044%=      5-min Rain = 0
KGO1 111625Z 16012KT 31/16 A3015 RMK A01 T03070164  RH  042%=      5-min Rain = 0
KGO1 111626Z 16013KT 30/16 A3015 RMK A01 T03030164  RH  043%=      5-min Rain = 0
KGO1 111627Z 17010KT 30/16 A3015 RMK A01 T03010164  RH  044%=      5-min Rain = 0
KGO1 111628Z 19009KT 30/16 A3015 RMK A01 T02990163  RH  044%=      5-min Rain = 0
KGO1 111629Z 18009KT 30/16 A3015 RMK A01 T02980164  RH  044%=      5-min Rain = 0
KGO1 111630Z 20012KT 30/17 A3015 RMK A01 T03020166  RH  044%=      5-min Rain = 0
KGO1 111631Z 17013KT 30/16 A3015 RMK A01 T03040163  RH  043%=      5-min Rain = 0
KGO1 111632Z 17013KT 31/16 A3015 RMK A01 T03050159  RH  041%=      5-min Rain = 0
KGO1 111633Z 18012KT 30/16 A3015 RMK A01 T03040158  RH  041%=      5-min Rain = 0
KGO1 111634Z 18010KT 30/16 A3015 RMK A01 T03040157  RH  041%=      5-min Rain = 0
KGO1 111635Z 19010KT 30/16 A3015 RMK A01 T03030158  RH  042%=      5-min Rain = 0
KGO1 111636Z 19009KT 30/16 A3015 RMK A01 T03020159  RH  042%=      5-min Rain = 0
KGO1 111637Z 18013KT 30/16 A3015 RMK A01 T03010160  RH  043%=      5-min Rain = 0
KGO1 111638Z 16013KT 30/16 A3015 RMK A01 T03020156  RH  041%=      5-min Rain = 0
KGO1 111639Z 15011KT 30/16 A3015 RMK A01 T03030160  RH  042%=      5-min Rain = 0
KGO1 111640Z 16012KT 31/16 A3015 RMK A01 T03060161  RH  042%=      5-min Rain = 0
KGO1 111641Z 16011KT 31/16 A3015 RMK A01 T03070158  RH  040%=      5-min Rain = 0
KGO1 111642Z 16008KT 31/16 A3015 RMK A01 T03060157  RH  040%=      5-min Rain = 0
KGO1 111643Z 15010KT 31/16 A3015 RMK A01 T03060156  RH  040%=      5-min Rain = 0
KGO1 111644Z 14010KT 31/16 A3015 RMK A01 T03090157  RH  040%=      5-min Rain = 0
KGO1 111645Z 15012KT 31/16 A3015 RMK A01 T03120158  RH  040%=      5-min Rain = 0
KGO1 111646Z 15010KT 31/16 A3015 RMK A01 T03100156  RH  039%=      5-min Rain = 0
KGO1 111647Z 16014KT 31/16 A3015 RMK A01 T03070157  RH  040%=      5-min Rain = 0
KGO1 111648Z 16012KT 31/16 A3015 RMK A01 T03090158  RH  040%=      5-min Rain = 0
KGO1 111649Z 16011KT 31/16 A3015 RMK A01 T03120158  RH  040%=      5-min Rain = 0
KGO1 111650Z 15013KT 31/16 A3015 RMK A01 T03120158  RH  040%=      5-min Rain = 0
KGO1 111651Z 15013KT 31/16 A3015 RMK A01 T03090157  RH  040%=      5-min Rain = 0
KGO1 111652Z 16015KT 31/16 A3015 RMK A01 T03090155  RH  039%=      5-min Rain = 0
KGO1 111653Z 18014KT 31/15 A3015 RMK A01 T03100153  RH  039%=      5-min Rain = 0
KGO1 111654Z 17013KT 31/15 A3015 RMK A01 T03110152  RH  038%=      5-min Rain = 0
KGO1 111655Z 18014KT 31/16 A3015 RMK A01 T03090155  RH  040%=      5-min Rain = 0
KGO1 111656Z 19009KT 31/16 A3015 RMK A01 T03090157  RH  040%=      5-min Rain = 0
KGO1 111657Z 19006KT 31/16 A3015 RMK A01 T03110160  RH  040%=      5-min Rain = 0
KGO1 111658Z 19011KT 31/15 A3015 RMK A01 T03130154  RH  038%=      5-min Rain = 0
KGO1 111659Z 20008KT 31/16 A3015 RMK A01 T03130155  RH  038%=      5-min Rain = 0
KGO1 111700Z 18011G16KT 32/16 A3015 RMK A01 T03150157  RH  038%=      5-min Rain = 0
KGO1 111701Z 17007KT 32/15 A3015 RMK A01 T03160147  RH  036%=      5-min Rain = 0
KGO1 111702Z 15011KT 31/15 A3015 RMK A01 T03120152  RH  038%=      5-min Rain = 0
KGO1 111703Z 15013G18KT 31/16 A3015 RMK A01 T03110156  RH  039%=      5-min Rain = 0
KGO1 111704Z 15015KT 31/16 A3015 RMK A01 T03100157  RH  040%=      5-min Rain = 0
KGO1 111705Z 15012KT 31/16 A3015 RMK A01 T03120158  RH  039%=      5-min Rain = 0
KGO1 111706Z 14009KT 31/16 A3015 RMK A01 T03140157  RH  039%=      5-min Rain = 0
KGO1 111707Z 16008KT 31/16 A3015 RMK A01 T03130155  RH  038%=      5-min Rain = 0
KGO1 111708Z 18009G18KT 31/16 A3015 RMK A01 T03110159  RH  040%=      5-min Rain = 0
KGO1 111709Z 19014KT 31/15 A3015 RMK A01 T03130153  RH  038%=      5-min Rain = 0
KGO1 111710Z 17014KT 32/16 A3015 RMK A01 T03160155  RH  038%=      5-min Rain = 0
KGO1 111711Z 16014G19KT 32/16 A3015 RMK A01 T03180155  RH  037%=      5-min Rain = 0
KGO1 111712Z 17014G19KT 32/16 A3015 RMK A01 T03160157  RH  038%=      5-min Rain = 0
KGO1 111713Z 18014KT 32/15 A3015 RMK A01 T03180152  RH  037%=      5-min Rain = 0
KGO1 111714Z 19014KT 32/14 A3015 RMK A01 T03200142  RH  034%=      5-min Rain = 0
KGO1 111715Z 19012G17KT 32/14 A3015 RMK A01 T03190140  RH  034%=      5-min Rain = 0
KGO1 111716Z 17010KT 32/14 A3015 RMK A01 T03150140  RH  035%=      5-min Rain = 0
KGO1 111717Z 15006G11KT 31/14 A3015 RMK A01 T03120142  RH  036%=      5-min Rain = 0
KGO1 111718Z 19008G14KT 31/14 A3015 RMK A01 T03100142  RH  036%=      5-min Rain = 0
KGO1 111719Z 17009G15KT 31/15 A3015 RMK A01 T03130147  RH  036%=      5-min Rain = 0
KGO1 111720Z 18016KT 32/14 A3015 RMK A01 T03170143  RH  035%=      5-min Rain = 0
KGO1 111721Z 17016KT 32/14 A3015 RMK A01 T03190143  RH  034%=      5-min Rain = 0
KGO1 111722Z 16015KT 32/14 A3015 RMK A01 T03180141  RH  034%=      5-min Rain = 0
KGO1 111723Z 18013KT 32/14 A3015 RMK A01 T03160142  RH  035%=      5-min Rain = 0
KGO1 111724Z 16009KT 32/14 A3015 RMK A01 T03150143  RH  035%=      5-min Rain = 0
KGO1 111725Z 16010KT 32/15 A3014 RMK A01 T03160146  RH  036%=      5-min Rain = 0
KGO1 111726Z 20013KT 32/14 A3014 RMK A01 T03190142  RH  034%=      5-min Rain = 0
KGO1 111727Z 21011KT 32/14 A3014 RMK A01 T03210135  RH  032%=      5-min Rain = 0
KGO1 111728Z 18013KT 32/13 A3014 RMK A01 T03210133  RH  032%=      5-min Rain = 0
KGO1 111729Z 19015KT 32/14 A3014 RMK A01 T03220137  RH  032%=      5-min Rain = 0
KGO1 111730Z 20014KT 32/14 A3014 RMK A01 T03230137  RH  032%=      5-min Rain = 0
KGO1 111731Z 20009KT 32/13 A3014 RMK A01 T03180133  RH  033%=      5-min Rain = 0
KGO1 111732Z 21012KT 32/14 A3014 RMK A01 T03150138  RH  034%=      5-min Rain = 0
KGO1 111733Z 18013KT 32/14 A3014 RMK A01 T03160139  RH  034%=      5-min Rain = 0
KGO1 111734Z 17014KT 32/14 A3014 RMK A01 T03200135  RH  032%=      5-min Rain = 0
KGO1 111735Z 19015KT 32/13 A3014 RMK A01 T03210129  RH  031%=      5-min Rain = 0
KGO1 111736Z 19013KT 32/13 A3014 RMK A01 T03220132  RH  032%=      5-min Rain = 0
KGO1 111737Z 20013KT 32/13 A3014 RMK A01 T03210134  RH  032%=      5-min Rain = 0
KGO1 111738Z 18011KT 32/14 A3014 RMK A01 T03200135  RH  033%=      5-min Rain = 0
KGO1 111739Z 20015G20KT 32/13 A3014 RMK A01 T03180134  RH  033%=      5-min Rain = 0
KGO1 111740Z 20012G17KT 32/13 A3014 RMK A01 T03180133  RH  032%=      5-min Rain = 0
KGO1 111741Z 18016KT 32/14 A3014 RMK A01 T03170135  RH  033%=      5-min Rain = 0
KGO1 111742Z 18013KT 32/13 A3014 RMK A01 T03190133  RH  032%=      5-min Rain = 0
KGO1 111743Z 18013KT 32/14 A3014 RMK A01 T03200138  RH  033%=      5-min Rain = 0
KGO1 111744Z 17013KT 32/14 A3014 RMK A01 T03220135  RH  032%=      5-min Rain = 0
KGO1 111745Z 19011KT 32/13 A3014 RMK A01 T03230134  RH  032%=      5-min Rain = 0
KGO1 111746Z 19009KT 32/13 A3014 RMK A01 T03220131  RH  031%=      5-min Rain = 0
KGO1 111747Z 18016KT 32/13 A3014 RMK A01 T03210133  RH  032%=      5-min Rain = 0
KGO1 111748Z 17016KT 33/13 A3014 RMK A01 T03290134  RH  031%=      5-min Rain = 0
KGO1 111749Z 18016KT 33/13 A3014 RMK A01 T03300134  RH  030%=      5-min Rain = 0
KGO1 111750Z 18013G19KT 33/14 A3014 RMK A01 T03280136  RH  031%=      5-min Rain = 0
KGO1 111751Z 19015KT 33/14 A3014 RMK A01 T03260139  RH  032%=      5-min Rain = 0
KGO1 111752Z 19009KT 33/14 A3014 RMK A01 T03250139  RH  032%=      5-min Rain = 0
KGO1 111753Z 15012KT 32/14 A3014 RMK A01 T03210135  RH  032%=      5-min Rain = 0
KGO1 111754Z 16018G24KT 32/14 A3014 RMK A01 T03200135  RH  032%=      5-min Rain = 0
KGO1 111755Z 15016KT 32/14 A3014 RMK A01 T03240135  RH  032%=      5-min Rain = 0
KGO1 111756Z 15017KT 33/14 A3014 RMK A01 T03270140  RH  032%=      5-min Rain = 0
KGO1 111757Z 15018KT 33/14 A3014 RMK A01 T03290139  RH  032%=      5-min Rain = 0
KGO1 111758Z 15018KT 33/14 A3014 RMK A01 T03270139  RH  032%=      5-min Rain = 0
KGO1 111759Z 16017KT 32/14 A3014 RMK A01 T03240137  RH  032%=      5-min Rain = 0
KGO1 111800Z 16013KT 32/14 A3014 RMK A01 T03210137  RH  033%=      5-min Rain = 0
KGO1 111801Z 16009KT 32/14 A3014 RMK A01 T03210140  RH  033%=      5-min Rain = 0
KGO1 111802Z 17013KT 32/14 A3014 RMK A01 T03240142  RH  033%=      5-min Rain = 0
KGO1 111803Z 16011KT 33/14 A3014 RMK A01 T03250136  RH  032%=      5-min Rain = 0
KGO1 111804Z 16006KT 32/14 A3014 RMK A01 T03200138  RH  033%=      5-min Rain = 0
KGO1 111805Z 20011KT 32/14 A3014 RMK A01 T03200142  RH  034%=      5-min Rain = 0
KGO1 111806Z 19009KT 32/14 A3014 RMK A01 T03190139  RH  034%=      5-min Rain = 0
KGO1 111807Z 17008KT 32/15 A3013 RMK A01 T03190149  RH  036%=      5-min Rain = 0
KGO1 111808Z 14011KT 32/13 A3013 RMK A01 T03240131  RH  031%=      5-min Rain = 0
KGO1 111809Z 17017G24KT 33/13 A3013 RMK A01 T03250134  RH  031%=      5-min Rain = 0
KGO1 111810Z 16018KT 33/13 A3013 RMK A01 T03290127  RH  029%=      5-min Rain = 0
KGO1 111811Z 15016KT 33/13 A3013 RMK A01 T03290126  RH  029%=      5-min Rain = 0
KGO1 111812Z 14018KT 33/13 A3013 RMK A01 T03260128  RH  030%=      5-min Rain = 0
KGO1 111813Z 16015KT 33/13 A3013 RMK A01 T03260132  RH  031%=      5-min Rain = 0
KGO1 111814Z 17014G21KT 33/14 A3013 RMK A01 T03290138  RH  031%=      5-min Rain = 0
KGO1 111815Z 16017KT 34/14 A3013 RMK A01 T03350135  RH  030%=      5-min Rain = 0
KGO1 111816Z 16017KT 33/14 A3013 RMK A01 T03330136  RH  030%=      5-min Rain = 0
KGO1 111817Z 16015KT 33/13 A3013 RMK A01 T03300134  RH  030%=      5-min Rain = 0
KGO1 111818Z 17016KT 33/14 A3013 RMK A01 T03270138  RH  032%=      5-min Rain = 0
KGO1 111819Z 18017KT 33/14 A3013 RMK A01 T03300135  RH  031%=      5-min Rain = 0
KGO1 111820Z 19017KT 33/13 A3013 RMK A01 T03300133  RH  030%=      5-min Rain = 0
KGO1 111821Z 19017KT 33/13 A3013 RMK A01 T03290129  RH  030%=      5-min Rain = 0
KGO1 111822Z 20012G17KT 33/13 A3013 RMK A01 T03260132  RH  031%=      5-min Rain = 0
KGO1 111823Z 20013KT 33/13 A3013 RMK A01 T03260131  RH  031%=      5-min Rain = 0
KGO1 111824Z 20016KT 33/13 A3013 RMK A01 T03270134  RH  031%=      5-min Rain = 0
KGO1 111825Z 19017KT 33/14 A3013 RMK A01 T03300138  RH  031%=      5-min Rain = 0
KGO1 111826Z 19014G19KT 33/14 A3013 RMK A01 T03310140  RH  031%=      5-min Rain = 0
KGO1 111827Z 20019KT 33/14 A3013 RMK A01 T03310140  RH  031%=      5-min Rain = 0
KGO1 111828Z 20016KT 33/14 A3013 RMK A01 T03310141  RH  032%=      5-min Rain = 0
KGO1 111829Z 20011G16KT 33/14 A3013 RMK A01 T03290140  RH  032%=      5-min Rain = 0
KGO1 111830Z 19013G18KT 33/14 A3013 RMK A01 T03260140  RH  033%=      5-min Rain = 0
KGO1 111831Z 19017G22KT 33/14 A3013 RMK A01 T03280144  RH  033%=      5-min Rain = 0
KGO1 111832Z 19018G23KT 33/14 A3013 RMK A01 T03300141  RH  032%=      5-min Rain = 0
KGO1 111833Z 19012KT 33/14 A3013 RMK A01 T03270140  RH  032%=      5-min Rain = 0
KGO1 111834Z 19009KT 32/14 A3013 RMK A01 T03240140  RH  033%=      5-min Rain = 0
KGO1 111835Z 17009KT 32/14 A3013 RMK A01 T03230142  RH  033%=      5-min Rain = 0
KGO1 111836Z 18013KT 33/14 A3013 RMK A01 T03250143  RH  033%=      5-min Rain = 0
KGO1 111837Z 16020KT 33/15 A3013 RMK A01 T03270145  RH  033%=      5-min Rain = 0
KGO1 111838Z 15017KT 33/14 A3013 RMK A01 T03290144  RH  033%=      5-min Rain = 0
KGO1 111839Z 14015KT 33/14 A3013 RMK A01 T03270144  RH  033%=      5-min Rain = 0
KGO1 111840Z 14013KT 33/15 A3013 RMK A01 T03270146  RH  034%=      5-min Rain = 0
KGO1 111841Z 15012KT 33/15 A3013 RMK A01 T03270145  RH  033%=      5-min Rain = 0
KGO1 111842Z 16010KT 33/15 A3013 RMK A01 T03270146  RH  034%=      5-min Rain = 0
KGO1 111843Z 16010G16KT 33/15 A3012 RMK A01 T03290147  RH  033%=      5-min Rain = 0
KGO1 111844Z 17012G17KT 33/15 A3012 RMK A01 T03290146  RH  033%=      5-min Rain = 0
KGO1 111845Z 16016G22KT 33/15 A3012 RMK A01 T03290147  RH  034%=      5-min Rain = 0
KGO1 111846Z 16016KT 33/14 A3012 RMK A01 T03310140  RH  032%=      5-min Rain = 0
KGO1 111847Z 17013KT 33/14 A3012 RMK A01 T03300143  RH  033%=      5-min Rain = 0
KGO1 111848Z 18014KT 33/15 A3012 RMK A01 T03290145  RH  033%=      5-min Rain = 0
KGO1 111849Z 18018G23KT 33/14 A3012 RMK A01 T03300142  RH  032%=      5-min Rain = 0
KGO1 111850Z 17017KT 33/14 A3012 RMK A01 T03310139  RH  031%=      5-min Rain = 0
KGO1 111851Z 18013KT 33/14 A3012 RMK A01 T03300142  RH  032%=      5-min Rain = 0
KGO1 111852Z 18015G20KT 33/14 A3012 RMK A01 T03340144  RH  032%=      5-min Rain = 0
KGO1 111853Z 17016G21KT 34/15 A3012 RMK A01 T03370145  RH  031%=      5-min Rain = 0
KGO1 111854Z 17021KT 34/14 A3012 RMK A01 T03360140  RH  031%=      5-min Rain = 0
KGO1 111855Z 18018G24KT 33/14 A3012 RMK A01 T03340140  RH  031%=      5-min Rain = 0
KGO1 111856Z 18015KT 33/14 A3012 RMK A01 T03320141  RH  032%=      5-min Rain = 0
KGO1 111857Z 18016KT 33/14 A3012 RMK A01 T03310141  RH  032%=      5-min Rain = 0
KGO1 111858Z 18011KT 33/14 A3012 RMK A01 T03310142  RH  032%=      5-min Rain = 0
KGO1 111859Z 19013KT 33/14 A3012 RMK A01 T03290142  RH  032%=      5-min Rain = 0
KGO1 111900Z 20015KT 33/14 A3012 RMK A01 T03300140  RH  032%=      5-min Rain = 0
KGO1 111901Z 18012KT 33/14 A3012 RMK A01 T03300141  RH  032%=      5-min Rain = 0
KGO1 111902Z 18014G19KT 33/14 A3012 RMK A01 T03300143  RH  032%=      5-min Rain = 0
KGO1 111903Z 16018KT 33/14 A3011 RMK A01 T03320141  RH  031%=      5-min Rain = 0
KGO1 111904Z 14017KT 33/14 A3012 RMK A01 T03310141  RH  032%=      5-min Rain = 0
KGO1 111905Z 14013G18KT 33/14 A3012 RMK A01 T03310143  RH  032%=      5-min Rain = 0
KGO1 111906Z 14017G23KT 33/14 A3012 RMK A01 T03310144  RH  032%=      5-min Rain = 0
KGO1 111907Z 16014KT 33/14 A3011 RMK A01 T03310142  RH  032%=      5-min Rain = 0
KGO1 111908Z 16011KT 33/14 A3011 RMK A01 T03290140  RH  032%=      5-min Rain = 0
KGO1 111909Z 15014KT 33/14 A3011 RMK A01 T03280141  RH  032%=      5-min Rain = 0
KGO1 111910Z 15014KT 33/15 A3011 RMK A01 T03300145  RH  033%=      5-min Rain = 0
KGO1 111911Z 18016KT 33/15 A3011 RMK A01 T03330146  RH  032%=      5-min Rain = 0
KGO1 111912Z 18016KT 33/15 A3011 RMK A01 T03330145  RH  032%=      5-min Rain = 0
KGO1 111913Z 17014KT 33/14 A3011 RMK A01 T03300143  RH  032%=      5-min Rain = 0
KGO1 111914Z 19015KT 33/15 A3011 RMK A01 T03290146  RH  033%=      5-min Rain = 0
KGO1 111915Z 20012KT 33/14 A3011 RMK A01 T03320144  RH  032%=      5-min Rain = 0
KGO1 111916Z 19008KT 33/14 A3011 RMK A01 T03310144  RH  032%=      5-min Rain = 0
KGO1 111917Z 17009KT 33/14 A3011 RMK A01 T03290144  RH  033%=      5-min Rain = 0
KGO1 111918Z 19008KT 33/15 A3011 RMK A01 T03290145  RH  033%=      5-min Rain = 0
KGO1 111919Z 18012G20KT 33/15 A3011 RMK A01 T03320148  RH  033%=      5-min Rain = 0
KGO1 111920Z 18013KT 34/15 A3011 RMK A01 T03360147  RH  032%=      5-min Rain = 0
KGO1 111921Z 18015KT 34/15 A3011 RMK A01 T03380148  RH  032%=      5-min Rain = 0
KGO1 111922Z 16014KT 34/15 A3011 RMK A01 T03380147  RH  032%=      5-min Rain = 0
KGO1 111923Z 17014KT 34/15 A3011 RMK A01 T03390148  RH  032%=      5-min Rain = 0
KGO1 111924Z 15012KT 34/15 A3011 RMK A01 T03380147  RH  032%=      5-min Rain = 0
KGO1 111925Z 18016G21KT 34/15 A301 RMK A01 T03350148  RH  032%=      5-min Rain = 0
KGO1 111926Z 17015G21KT 34/15 A301 RMK A01 T03390145  RH  031%=      5-min Rain = 0
KGO1 111927Z 14013KT 34/15 A301 RMK A01 T03430152  RH  032%=      5-min Rain = 0
KGO1 111928Z 14015G20KT 34/15 A301 RMK A01 T03420154  RH  032%=      5-min Rain = 0
KGO1 111929Z 15020G26KT 34/14 A301 RMK A01 T03400144  RH  031%=      5-min Rain = 0
KGO1 111930Z 16013G19KT 34/14 A301 RMK A01 T03350143  RH  031%=      5-min Rain = 0
KGO1 111931Z 16014G21KT 33/15 A301 RMK A01 T03320145  RH  033%=      5-min Rain = 0
KGO1 111932Z 15017G22KT 34/15 A301 RMK A01 T03350145  RH  032%=      5-min Rain = 0
KGO1 111933Z 15015KT 34/15 A301 RMK A01 T03400147  RH  032%=      5-min Rain = 0
KGO1 111934Z 15016KT 34/14 A301 RMK A01 T03410144  RH  031%=      5-min Rain = 0
KGO1 111935Z 17018KT 34/14 A301 RMK A01 T03380141  RH  031%=      5-min Rain = 0
KGO1 111936Z 17015G20KT 33/14 A301 RMK A01 T03340142  RH  031%=      5-min Rain = 0
KGO1 111937Z 17012G17KT 33/14 A301 RMK A01 T03340139  RH  031%=      5-min Rain = 0
KGO1 111938Z 16016KT 33/14 A301 RMK A01 T03340144  RH  032%=      5-min Rain = 0
KGO1 111939Z 16017KT 34/15 A301 RMK A01 T03370145  RH  031%=      5-min Rain = 0
KGO1 111940Z 17015KT 34/14 A301 RMK A01 T03430142  RH  030%=      5-min Rain = 0
KGO1 111941Z 17018KT 34/14 A301 RMK A01 T03430141  RH  030%=      5-min Rain = 0
KGO1 111942Z 16015KT 34/14 A301 RMK A01 T03430138  RH  029%=      5-min Rain = 0
KGO1 111943Z 15014KT 34/14 A301 RMK A01 T03400138  RH  030%=      5-min Rain = 0
KGO1 111944Z 16013KT 34/14 A301 RMK A01 T03380139  RH  030%=      5-min Rain = 0
KGO1 111945Z 15014KT 34/14 A301 RMK A01 T03390137  RH  030%=      5-min Rain = 0
KGO1 111946Z 16017KT 34/13 A301 RMK A01 T03370133  RH  029%=      5-min Rain = 0
KGO1 111947Z 14014KT 33/13 A301 RMK A01 T03300133  RH  030%=      5-min Rain = 0
KGO1 111948Z 14012KT 33/13 A301 RMK A01 T03300134  RH  031%=      5-min Rain = 0
KGO1 111949Z 16013KT 33/14 A301 RMK A01 T03290137  RH  031%=      5-min Rain = 0
KGO1 111950Z 15017KT 33/14 A301 RMK A01 T03330136  RH  030%=      5-min Rain = 0
KGO1 111951Z 14013G18KT 34/14 A301 RMK A01 T03350137  RH  030%=      5-min Rain = 0
KGO1 111952Z 13015KT 34/13 A301 RMK A01 T03360133  RH  029%=      5-min Rain = 0
KGO1 111953Z 14014KT 33/13 A301 RMK A01 T03310128  RH  029%=      5-min Rain = 0
KGO1 111954Z 16011KT 33/13 A301 RMK A01 T03280131  RH  030%=      5-min Rain = 0
KGO1 111955Z 15010KT 33/13 A301 RMK A01 T03340134  RH  030%=      5-min Rain = 0
KGO1 111956Z 14014KT 34/14 A3009 RMK A01 T03380136  RH  030%=      5-min Rain = 0
KGO1 111957Z 17011KT 34/14 A3009 RMK A01 T03400140  RH  030%=      5-min Rain = 0
KGO1 111958Z 17011KT 34/14 A3009 RMK A01 T03430137  RH  029%=      5-min Rain = 0
KGO1 111959Z 19010G15KT 34/14 A3009 RMK A01 T03400138  RH  030%=      5-min Rain = 0
KGO1 112000Z 16015G22KT 35/14 A3009 RMK A01 T03450143  RH  030%=      5-min Rain = 0
KGO1 112001Z 15012G17KT 35/14 A3009 RMK A01 T03470142  RH  029%=      5-min Rain = 0
KGO1 112002Z 18008KT 35/14 A3009 RMK A01 T03450136  RH  028%=      5-min Rain = 0
KGO1 112003Z 19009KT 34/14 A3009 RMK A01 T03400136  RH  029%=      5-min Rain = 0
KGO1 112004Z 18013KT 34/14 A3009 RMK A01 T03380136  RH  030%=      5-min Rain = 0
KGO1 112005Z 18012G19KT 34/14 A3009 RMK A01 T03420140  RH  030%=      5-min Rain = 0
KGO1 112006Z 18017KT 35/14 A3009 RMK A01 T03470136  RH  028%=      5-min Rain = 0
KGO1 112007Z 19015G21KT 35/14 A3009 RMK A01 T03460138  RH  029%=      5-min Rain = 0
KGO1 112008Z 18019KT 35/14 A3009 RMK A01 T03470136  RH  028%=      5-min Rain = 0
KGO1 112009Z 19018KT 34/13 A3009 RMK A01 T03440133  RH  028%=      5-min Rain = 0
KGO1 112010Z 19017KT 34/13 A3009 RMK A01 T03420133  RH  028%=      5-min Rain = 0
KGO1 112011Z 17013G18KT 34/13 A3009 RMK A01 T03410134  RH  029%=      5-min Rain = 0
KGO1 112012Z 17015KT 34/13 A3009 RMK A01 T03430133  RH  028%=      5-min Rain = 0
KGO1 112013Z 16015KT 34/13 A3009 RMK A01 T03440131  RH  028%=      5-min Rain = 0
KGO1 112014Z 16020G26KT 35/13 A3008 RMK A01 T03450129  RH  027%=      5-min Rain = 0
KGO1 112015Z 15019KT 34/13 A3008 RMK A01 T03410126  RH  027%=      5-min Rain = 0
KGO1 112016Z 16018KT 34/12 A3008 RMK A01 T03360124  RH  028%=      5-min Rain = 0
KGO1 112017Z 15016KT 33/12 A3009 RMK A01 T03320123  RH  028%=      5-min Rain = 0
KGO1 112018Z 17016KT 33/12 A3009 RMK A01 T03320124  RH  028%=      5-min Rain = 0
KGO1 112019Z 18015KT 34/13 A3008 RMK A01 T03370126  RH  028%=      5-min Rain = 0
KGO1 112020Z 16018G24KT 34/13 A3008 RMK A01 T03420131  RH  028%=      5-min Rain = 0
KGO1 112021Z 16020KT 35/13 A3008 RMK A01 T03500128  RH  026%=      5-min Rain = 0
KGO1 112022Z 15017G22KT 35/13 A3008 RMK A01 T03490126  RH  026%=      5-min Rain = 0
KGO1 112023Z 15019KT 35/13 A3008 RMK A01 T03470126  RH  026%=      5-min Rain = 0
KGO1 112024Z 16017KT 34/12 A3008 RMK A01 T03410124  RH  027%=      5-min Rain = 0
KGO1 112025Z 16016KT 34/12 A3008 RMK A01 T03360124  RH  028%=      5-min Rain = 0
KGO1 112026Z 16013KT 34/13 A3008 RMK A01 T03350125  RH  028%=      5-min Rain = 0
KGO1 112027Z 15012KT 34/13 A3008 RMK A01 T03360127  RH  028%=      5-min Rain = 0
KGO1 112028Z 17015KT 34/13 A3008 RMK A01 T03400131  RH  028%=      5-min Rain = 0
KGO1 112029Z 17018KT 34/13 A3008 RMK A01 T03410127  RH  027%=      5-min Rain = 0
KGO1 112030Z 18016KT 34/12 A3008 RMK A01 T03370123  RH  027%=      5-min Rain = 0
KGO1 112031Z 18017KT 34/13 A3008 RMK A01 T03360127  RH  028%=      5-min Rain = 0
KGO1 112032Z 16013KT 34/13 A3008 RMK A01 T03390131  RH  029%=      5-min Rain = 0
KGO1 112033Z 15012KT 34/13 A3008 RMK A01 T03430132  RH  028%=      5-min Rain = 0
KGO1 112034Z 17016KT 34/14 A3008 RMK A01 T03420135  RH  029%=      5-min Rain = 0
KGO1 112035Z 17015KT 34/13 A3008 RMK A01 T03380131  RH  029%=      5-min Rain = 0
KGO1 112036Z 16016KT 34/13 A3008 RMK A01 T03360132  RH  029%=      5-min Rain = 0
KGO1 112037Z 16016KT 33/13 A3008 RMK A01 T03340129  RH  029%=      5-min Rain = 0
KGO1 112038Z 15014KT 34/13 A3008 RMK A01 T03350129  RH  029%=      5-min Rain = 0
KGO1 112039Z 13013KT 34/13 A3008 RMK A01 T03380129  RH  028%=      5-min Rain = 0
KGO1 112040Z 13014KT 34/13 A3008 RMK A01 T03390132  RH  029%=      5-min Rain = 0
KGO1 112041Z 14014G19KT 34/13 A3007 RMK A01 T03410132  RH  028%=      5-min Rain = 0
KGO1 112042Z 14014KT 34/13 A3007 RMK A01 T03430131  RH  028%=      5-min Rain = 0
KGO1 112043Z 14013KT 35/13 A3007 RMK A01 T03470132  RH  027%=      5-min Rain = 0
KGO1 112044Z 16013KT 35/13 A3007 RMK A01 T03470130  RH  027%=      5-min Rain = 0
KGO1 112045Z 16014KT 35/13 A3007 RMK A01 T03460131  RH  027%=      5-min Rain = 0
KGO1 112046Z 19012KT 34/13 A3007 RMK A01 T03430129  RH  027%=      5-min Rain = 0
KGO1 112047Z 20011KT 34/13 A3007 RMK A01 T03430132  RH  028%=      5-min Rain = 0
KGO1 112048Z 18010KT 34/13 A3007 RMK A01 T03440132  RH  028%=      5-min Rain = 0
KGO1 112049Z 17011KT 34/13 A3007 RMK A01 T03420129  RH  028%=      5-min Rain = 0
KGO1 112050Z 16014KT 34/13 A3007 RMK A01 T03370129  RH  028%=      5-min Rain = 0
KGO1 112051Z 17016KT 34/13 A3007 RMK A01 T03370132  RH  029%=      5-min Rain = 0
KGO1 112052Z 17019KT 34/13 A3007 RMK A01 T03440133  RH  028%=      5-min Rain = 0
KGO1 112053Z 17020KT 35/13 A3007 RMK A01 T03460133  RH  028%=      5-min Rain = 0
KGO1 112054Z 17014KT 34/13 A3007 RMK A01 T03430129  RH  028%=      5-min Rain = 0
KGO1 112055Z 17010KT 34/13 A3007 RMK A01 T03380130  RH  028%=      5-min Rain = 0
KGO1 112056Z 16018G24KT 34/13 A3007 RMK A01 T03350131  RH  029%=      5-min Rain = 0
KGO1 112057Z 16018KT 34/13 A3007 RMK A01 T03360134  RH  029%=      5-min Rain = 0
KGO1 112058Z 17017KT 34/13 A3007 RMK A01 T03370132  RH  029%=      5-min Rain = 0
KGO1 112059Z 17014KT 33/13 A3007 RMK A01 T03340130  RH  029%=      5-min Rain = 0
KGO1 112100Z 17015G21KT 33/13 A3007 RMK A01 T03320131  RH  030%=      5-min Rain = 0
KGO1 112101Z 17020KT 33/13 A3007 RMK A01 T03310130  RH  030%=      5-min Rain = 0
KGO1 112102Z 16016KT 33/13 A3007 RMK A01 T03310130  RH  030%=      5-min Rain = 0
KGO1 112103Z 16016KT 33/13 A3007 RMK A01 T03340133  RH  030%=      5-min Rain = 0
KGO1 112104Z 16022G27KT 34/13 A3007 RMK A01 T03380134  RH  029%=      5-min Rain = 0
KGO1 112105Z 16016KT 34/13 A3007 RMK A01 T03390130  RH  028%=      5-min Rain = 0
KGO1 112106Z 15017KT 34/13 A3007 RMK A01 T03350129  RH  029%=      5-min Rain = 0
KGO1 112107Z 16013KT 33/13 A3007 RMK A01 T03320130  RH  030%=      5-min Rain = 0
KGO1 112108Z 17014KT 33/13 A3007 RMK A01 T03340133  RH  030%=      5-min Rain = 0
KGO1 112109Z 17015KT 34/13 A3007 RMK A01 T03350130  RH  029%=      5-min Rain = 0
KGO1 112110Z 17015KT 33/13 A3007 RMK A01 T03340129  RH  029%=      5-min Rain = 0
KGO1 112111Z 16013KT 33/13 A3007 RMK A01 T03330128  RH  029%=      5-min Rain = 0
KGO1 112112Z 16012KT 33/13 A3007 RMK A01 T03320131  RH  030%=      5-min Rain = 0
KGO1 112113Z 14015KT 33/13 A3006 RMK A01 T03330132  RH  030%=      5-min Rain = 0
KGO1 112114Z 15015KT 34/13 A3006 RMK A01 T03350132  RH  029%=      5-min Rain = 0
KGO1 112115Z 15014KT 33/13 A3006 RMK A01 T03340131  RH  029%=      5-min Rain = 0
KGO1 112116Z 16015KT 33/13 A3006 RMK A01 T03320130  RH  029%=      5-min Rain = 0
KGO1 112117Z 15019KT 33/13 A3006 RMK A01 T03310129  RH  029%=      5-min Rain = 0
KGO1 112118Z 16019KT 33/13 A3006 RMK A01 T03310128  RH  029%=      5-min Rain = 0
KGO1 112119Z 15015KT 33/13 A3006 RMK A01 T03300127  RH  029%=      5-min Rain = 0
KGO1 112120Z 15020KT 33/13 A3006 RMK A01 T03330128  RH  029%=      5-min Rain = 0
KGO1 112121Z 15018KT 33/13 A3006 RMK A01 T03330125  RH  028%=      5-min Rain = 0
KGO1 112122Z 17016KT 33/13 A3006 RMK A01 T03310126  RH  029%=      5-min Rain = 0
KGO1 112123Z 16015KT 33/13 A3006 RMK A01 T03300126  RH  029%=      5-min Rain = 0
KGO1 112124Z 16014KT 33/13 A3006 RMK A01 T03300128  RH  029%=      5-min Rain = 0
KGO1 112125Z 16016G21KT 33/13 A3006 RMK A01 T03300129  RH  030%=      5-min Rain = 0
KGO1 112126Z 17017KT 33/13 A3006 RMK A01 T03290131  RH  030%=      5-min Rain = 0
KGO1 112127Z 17015KT 33/13 A3006 RMK A01 T03280132  RH  030%=      5-min Rain = 0
KGO1 112128Z 17014KT 33/13 A3006 RMK A01 T03280132  RH  030%=      5-min Rain = 0
KGO1 112129Z 16015KT 33/13 A3006 RMK A01 T03270131  RH  030%=      5-min Rain = 0
KGO1 112130Z 15015KT 33/13 A3006 RMK A01 T03260133  RH  031%=      5-min Rain = 0
KGO1 112131Z 16015KT 33/13 A3006 RMK A01 T03260132  RH  031%=      5-min Rain = 0
KGO1 112132Z 17016KT 33/13 A3006 RMK A01 T03260133  RH  031%=      5-min Rain = 0
KGO1 112133Z 15016KT 33/13 A3006 RMK A01 T03280134  RH  031%=      5-min Rain = 0
KGO1 112134Z 15017KT 33/13 A3005 RMK A01 T03280133  RH  031%=      5-min Rain = 0
KGO1 112135Z 15016KT 33/14 A3005 RMK A01 T03290135  RH  031%=      5-min Rain = 0
KGO1 112136Z 16016KT 33/14 A3005 RMK A01 T03330135  RH  030%=      5-min Rain = 0
KGO1 112137Z 16018KT 34/14 A3005 RMK A01 T03370137  RH  030%=      5-min Rain = 0
KGO1 112138Z 16014KT 34/14 A3005 RMK A01 T03400140  RH  030%=      5-min Rain = 0
KGO1 112139Z 18017G23KT 35/14 A3005 RMK A01 T03450142  RH  030%=      5-min Rain = 0
KGO1 112140Z 18018KT 35/14 A3005 RMK A01 T03480138  RH  028%=      5-min Rain = 0
KGO1 112141Z 19017KT 35/14 A3005 RMK A01 T03480136  RH  028%=      5-min Rain = 0
KGO1 112142Z 18017G22KT 34/13 A3005 RMK A01 T03430133  RH  028%=      5-min Rain = 0
KGO1 112143Z 19013KT 34/13 A3005 RMK A01 T03410134  RH  029%=      5-min Rain = 0
KGO1 112144Z 18014KT 34/13 A3005 RMK A01 T03410134  RH  029%=      5-min Rain = 0
KGO1 112145Z 18017KT 34/13 A3005 RMK A01 T03420133  RH  028%=      5-min Rain = 0
KGO1 112146Z 17016KT 34/13 A3005 RMK A01 T03440134  RH  028%=      5-min Rain = 0
KGO1 112147Z 15019KT 35/13 A3005 RMK A01 T03460131  RH  027%=      5-min Rain = 0
KGO1 112148Z 16016KT 35/13 A3005 RMK A01 T03450131  RH  028%=      5-min Rain = 0
KGO1 112149Z 16016KT 34/13 A3005 RMK A01 T03440130  RH  028%=      5-min Rain = 0
KGO1 112150Z 16015KT 34/13 A3005 RMK A01 T03410129  RH  028%=      5-min Rain = 0
KGO1 112151Z 16013KT 34/13 A3005 RMK A01 T03400132  RH  028%=      5-min Rain = 0
KGO1 112152Z 15016KT 34/13 A3005 RMK A01 T03410131  RH  028%=      5-min Rain = 0
KGO1 112153Z 16013KT 34/13 A3005 RMK A01 T03420131  RH  028%=      5-min Rain = 0
KGO1 112154Z 15012KT 34/13 A3004 RMK A01 T03410129  RH  028%=      5-min Rain = 0
KGO1 112155Z 18013KT 34/13 A3004 RMK A01 T03400129  RH  028%=      5-min Rain = 0
KGO1 112156Z 17016G22KT 34/13 A3004 RMK A01 T03400133  RH  029%=      5-min Rain = 0
KGO1 112157Z 15015G20KT 34/13 A3004 RMK A01 T03430131  RH  028%=      5-min Rain = 0
KGO1 112158Z 17019G24KT 34/13 A3004 RMK A01 T03420132  RH  028%=      5-min Rain = 0
KGO1 112159Z 17018KT 34/13 A3004 RMK A01 T03430132  RH  028%=      5-min Rain = 0
KGO1 112200Z 16019KT 34/13 A3004 RMK A01 T03430131  RH  028%=      5-min Rain = 0
KGO1 112201Z 16016KT 34/13 A3004 RMK A01 T03430131  RH  028%=      5-min Rain = 0
KGO1 112202Z 16017KT 34/13 A3004 RMK A01 T03390131  RH  028%=      5-min Rain = 0
KGO1 112203Z 16018KT 34/13 A3004 RMK A01 T03360131  RH  029%=      5-min Rain = 0
KGO1 112204Z 16018KT 34/13 A3004 RMK A01 T03360132  RH  029%=      5-min Rain = 0
KGO1 112205Z 17017KT 34/13 A3004 RMK A01 T03370130  RH  029%=      5-min Rain = 0
KGO1 112206Z 18020KT 34/13 A3004 RMK A01 T03360131  RH  029%=      5-min Rain = 0
KGO1 112207Z 18017KT 34/13 A3004 RMK A01 T03360130  RH  029%=      5-min Rain = 0
KGO1 112208Z 19019KT 34/13 A3004 RMK A01 T03360131  RH  029%=      5-min Rain = 0
KGO1 112209Z 19013KT 34/13 A3004 RMK A01 T03380130  RH  029%=      5-min Rain = 0
KGO1 112210Z 17015KT 34/13 A3004 RMK A01 T03380133  RH  029%=      5-min Rain = 0
KGO1 112211Z 15020KT 34/13 A3004 RMK A01 T03390132  RH  029%=      5-min Rain = 0
KGO1 112212Z 15017KT 34/13 A3004 RMK A01 T03380132  RH  029%=      5-min Rain = 0
KGO1 112213Z 15014KT 34/13 A3004 RMK A01 T03370130  RH  029%=      5-min Rain = 0
KGO1 112214Z 15014G21KT 33/13 A3004 RMK A01 T03340131  RH  029%=      5-min Rain = 0
KGO1 112215Z 16018KT 33/13 A3004 RMK A01 T03320131  RH  030%=      5-min Rain = 0
KGO1 112216Z 16017KT 33/13 A3004 RMK A01 T03320130  RH  029%=      5-min Rain = 0
KGO1 112217Z 16016KT 33/13 A3004 RMK A01 T03340130  RH  029%=      5-min Rain = 0
KGO1 112218Z 17012KT 34/13 A3004 RMK A01 T03360131  RH  029%=      5-min Rain = 0
KGO1 112219Z 17011KT 34/13 A3004 RMK A01 T03360132  RH  029%=      5-min Rain = 0
KGO1 112220Z 16015KT 34/14 A3004 RMK A01 T03370135  RH  030%=      5-min Rain = 0
KGO1 112221Z 16015KT 34/14 A3004 RMK A01 T03390136  RH  029%=      5-min Rain = 0
KGO1 112222Z 14016KT 34/14 A3004 RMK A01 T03410136  RH  029%=      5-min Rain = 0
KGO1 112223Z 14016G21KT 34/14 A3004 RMK A01 T03420138  RH  029%=      5-min Rain = 0
KGO1 112224Z 17017KT 34/14 A3004 RMK A01 T03440137  RH  029%=      5-min Rain = 0
KGO1 112225Z 18018KT 35/14 A3004 RMK A01 T03450136  RH  028%=      5-min Rain = 0
KGO1 112226Z 17015KT 34/13 A3004 RMK A01 T03440134  RH  028%=      5-min Rain = 0
KGO1 112227Z 17013KT 34/14 A3004 RMK A01 T03430135  RH  029%=      5-min Rain = 0
KGO1 112228Z 18012KT 34/13 A3004 RMK A01 T03410134  RH  029%=      5-min Rain = 0
KGO1 112229Z 18013KT 34/14 A3004 RMK A01 T03410135  RH  029%=      5-min Rain = 0
KGO1 112230Z 18015G20KT 34/14 A3004 RMK A01 T03410135  RH  029%=      5-min Rain = 0
KGO1 112231Z 16016KT 34/13 A3004 RMK A01 T03420133  RH  028%=      5-min Rain = 0
KGO1 112232Z 16014KT 34/13 A3004 RMK A01 T03410132  RH  028%=      5-min Rain = 0
KGO1 112233Z 17017KT 34/13 A3004 RMK A01 T03410133  RH  028%=      5-min Rain = 0
KGO1 112234Z 18012G17KT 34/13 A3004 RMK A01 T03420132  RH  028%=      5-min Rain = 0
KGO1 112235Z 16019KT 34/14 A3003 RMK A01 T03410135  RH  029%=      5-min Rain = 0
KGO1 112236Z 16018KT 34/14 A3003 RMK A01 T03430137  RH  029%=      5-min Rain = 0
KGO1 112237Z 14018KT 34/14 A3003 RMK A01 T03440141  RH  030%=      5-min Rain = 0
KGO1 112238Z 14017KT 35/14 A3004 RMK A01 T03450140  RH  029%=      5-min Rain = 0
KGO1 112239Z 14016KT 34/14 A3004 RMK A01 T03420139  RH  029%=      5-min Rain = 0
KGO1 112240Z 14017KT 34/14 A3003 RMK A01 T03410143  RH  030%=      5-min Rain = 0
KGO1 112241Z 16018KT 34/14 A3003 RMK A01 T03420139  RH  030%=      5-min Rain = 0
KGO1 112242Z 16016KT 34/13 A3004 RMK A01 T03410134  RH  029%=      5-min Rain = 0
KGO1 112243Z 16013KT 34/13 A3004 RMK A01 T03400133  RH  029%=      5-min Rain = 0
KGO1 112244Z 15014KT 34/13 A3004 RMK A01 T03370134  RH  029%=      5-min Rain = 0
KGO1 112245Z 14017KT 34/14 A3004 RMK A01 T03390140  RH  030%=      5-min Rain = 0
KGO1 112246Z 14018KT 34/14 A3004 RMK A01 T03410141  RH  030%=      5-min Rain = 0
KGO1 112247Z 15017KT 34/14 A3004 RMK A01 T03380141  RH  030%=      5-min Rain = 0
KGO1 112248Z 15017KT 34/14 A3004 RMK A01 T03370140  RH  031%=      5-min Rain = 0
KGO1 112249Z 15016KT 34/14 A3004 RMK A01 T03360140  RH  031%=      5-min Rain = 0
KGO1 112250Z 15014KT 34/14 A3004 RMK A01 T03360141  RH  031%=      5-min Rain = 0
KGO1 112251Z 15013KT 34/14 A3004 RMK A01 T03360142  RH  031%=      5-min Rain = 0
KGO1 112252Z 15014KT 34/14 A3004 RMK A01 T03360141  RH  031%=      5-min Rain = 0
KGO1 112253Z 16014KT 34/14 A3004 RMK A01 T03350141  RH  031%=      5-min Rain = 0
KGO1 112254Z 16012KT 34/14 A3004 RMK A01 T03360144  RH  031%=      5-min Rain = 0
KGO1 112255Z 16015G20KT 34/14 A3004 RMK A01 T03380142  RH  031%=      5-min Rain = 0
KGO1 112256Z 15016KT 34/14 A3004 RMK A01 T03350140  RH  031%=      5-min Rain = 0
KGO1 112257Z 16014KT 33/14 A3004 RMK A01 T03320140  RH  031%=      5-min Rain = 0
KGO1 112258Z 15014KT 33/14 A3004 RMK A01 T03310139  RH  031%=      5-min Rain = 0
KGO1 112259Z 14019KT 33/14 A3004 RMK A01 T03300141  RH  032%=      5-min Rain = 0
KGO1 112300Z 15017KT 33/14 A3004 RMK A01 T03300140  RH  032%=      5-min Rain = 0
KGO1 112301Z 14018KT 33/14 A3004 RMK A01 T03310141  RH  032%=      5-min Rain = 0
KGO1 112302Z 14019KT 33/14 A3004 RMK A01 T03330140  RH  031%=      5-min Rain = 0
KGO1 112303Z 14016KT 33/14 A3004 RMK A01 T03340141  RH  031%=      5-min Rain = 0
KGO1 112304Z 14019KT 33/14 A3004 RMK A01 T03340141  RH  031%=      5-min Rain = 0
KGO1 112305Z 15018KT 33/14 A3004 RMK A01 T03310138  RH  031%=      5-min Rain = 0
KGO1 112306Z 16016KT 33/14 A3004 RMK A01 T03280137  RH  031%=      5-min Rain = 0
KGO1 112307Z 16017KT 33/14 A3004 RMK A01 T03280137  RH  032%=      5-min Rain = 0
KGO1 112308Z 16016KT 33/14 A3004 RMK A01 T03270136  RH  031%=      5-min Rain = 0
KGO1 112309Z 15015KT 33/14 A3004 RMK A01 T03260136  RH  032%=      5-min Rain = 0
KGO1 112310Z 16013G18KT 33/14 A3004 RMK A01 T03260139  RH  032%=      5-min Rain = 0
KGO1 112311Z 15014KT 33/14 A3004 RMK A01 T03260138  RH  032%=      5-min Rain = 0
KGO1 112312Z 14016KT 33/14 A3004 RMK A01 T03280138  RH  032%=      5-min Rain = 0
KGO1 112313Z 15019KT 33/14 A3004 RMK A01 T03300137  RH  031%=      5-min Rain = 0
KGO1 112314Z 16018KT 33/14 A3004 RMK A01 T03300138  RH  031%=      5-min Rain = 0
KGO1 112315Z 15017KT 33/14 A3003 RMK A01 T03320139  RH  031%=      5-min Rain = 0
KGO1 112316Z 14018KT 33/14 A3004 RMK A01 T03320137  RH  031%=      5-min Rain = 0
KGO1 112317Z 14017KT 33/14 A3004 RMK A01 T03310139  RH  031%=      5-min Rain = 0
KGO1 112318Z 14014KT 33/14 A3004 RMK A01 T03330140  RH  031%=      5-min Rain = 0
KGO1 112319Z 14019KT 34/14 A3004 RMK A01 T03350140  RH  031%=      5-min Rain = 0
KGO1 112320Z 14017KT 34/14 A3004 RMK A01 T03350139  RH  031%=      5-min Rain = 0
KGO1 112321Z 14016KT 34/14 A3004 RMK A01 T03360141  RH  031%=      5-min Rain = 0
KGO1 112322Z 15019KT 34/14 A3004 RMK A01 T03380139  RH  030%=      5-min Rain = 0
KGO1 112323Z 14016KT 34/14 A3004 RMK A01 T03360141  RH  031%=      5-min Rain = 0
KGO1 112324Z 14015KT 34/14 A3004 RMK A01 T03380141  RH  031%=      5-min Rain = 0
KGO1 112325Z 14015KT 34/14 A3004 RMK A01 T03370141  RH  031%=      5-min Rain = 0
KGO1 112326Z 15015KT 34/14 A3004 RMK A01 T03370139  RH  030%=      5-min Rain = 0
KGO1 112327Z 15017KT 34/14 A3004 RMK A01 T03370139  RH  030%=      5-min Rain = 0
KGO1 112328Z 15015KT 34/14 A3004 RMK A01 T03360138  RH  030%=      5-min Rain = 0
KGO1 112329Z 14015KT 34/14 A3004 RMK A01 T03350138  RH  030%=      5-min Rain = 0
KGO1 112330Z 15015KT 33/14 A3004 RMK A01 T03330137  RH  031%=      5-min Rain = 0
KGO1 112331Z 15016KT 33/14 A3004 RMK A01 T03320138  RH  031%=      5-min Rain = 0
KGO1 112332Z 14018KT 33/14 A3004 RMK A01 T03330138  RH  031%=      5-min Rain = 0
KGO1 112333Z 15018KT 33/14 A3004 RMK A01 T03340136  RH  030%=      5-min Rain = 0
KGO1 112334Z 15015KT 33/13 A3004 RMK A01 T03310134  RH  030%=      5-min Rain = 0
KGO1 112335Z 14015G20KT 33/14 A3004 RMK A01 T03300138  RH  031%=      5-min Rain = 0
KGO1 112336Z 15018G23KT 33/14 A3004 RMK A01 T03320137  RH  031%=      5-min Rain = 0
KGO1 112337Z 16021KT 33/14 A3003 RMK A01 T03330135  RH  030%=      5-min Rain = 0
KGO1 112338Z 16021KT 33/13 A3003 RMK A01 T03310134  RH  030%=      5-min Rain = 0
KGO1 112339Z 16018KT 33/13 A3004 RMK A01 T03310134  RH  030%=      5-min Rain = 0
KGO1 112340Z 16019KT 33/13 A3003 RMK A01 T03300134  RH  031%=      5-min Rain = 0
KGO1 112341Z 16016G21KT 33/14 A3003 RMK A01 T03280135  RH  031%=      5-min Rain = 0
KGO1 112342Z 16020KT 33/13 A3004 RMK A01 T03270134  RH  031%=      5-min Rain = 0
KGO1 112343Z 15020KT 33/13 A3003 RMK A01 T03270133  RH  031%=      5-min Rain = 0
KGO1 112344Z 16021KT 33/13 A3003 RMK A01 T03260133  RH  031%=      5-min Rain = 0
KGO1 112345Z 16019KT 33/13 A3003 RMK A01 T03260133  RH  031%=      5-min Rain = 0
KGO1 112346Z 15018KT 33/13 A3003 RMK A01 T03250133  RH  031%=      5-min Rain = 0
KGO1 112347Z 16018KT 33/13 A3003 RMK A01 T03250133  RH  031%=      5-min Rain = 0
KGO1 112348Z 16017KT 33/13 A3003 RMK A01 T03250133  RH  031%=      5-min Rain = 0
KGO1 112349Z 15015KT 33/13 A3004 RMK A01 T03250134  RH  031%=      5-min Rain = 0
KGO1 112350Z 15013KT 33/14 A3004 RMK A01 T03270136  RH  031%=      5-min Rain = 0
KGO1 112351Z 16015KT 33/14 A3004 RMK A01 T03290137  RH  031%=      5-min Rain = 0
KGO1 112352Z 15014KT 33/14 A3004 RMK A01 T03290135  RH  031%=      5-min Rain = 0
KGO1 112353Z 15018KT 33/14 A3003 RMK A01 T03290135  RH  031%=      5-min Rain = 0
KGO1 112354Z 16019KT 33/14 A3003 RMK A01 T03290135  RH  031%=      5-min Rain = 0
KGO1 112355Z 15017KT 33/14 A3004 RMK A01 T03270135  RH  031%=      5-min Rain = 0
KGO1 112356Z 15016KT 33/14 A3004 RMK A01 T03260135  RH  031%=      5-min Rain = 0
KGO1 112357Z 14017KT 33/14 A3004 RMK A01 T03290136  RH  031%=      5-min Rain = 0
KGO1 112358Z 14017KT 33/14 A3004 RMK A01 T03300136  RH  031%=      5-min Rain = 0
KGO1 112359Z 14015KT 33/14 A3004 RMK A01 T03290136  RH  031%=      5-min Rain = 0
KGO1 120000Z 15018KT 33/14 A3004 RMK A01 T03280136  RH  031%=      5-min Rain = 0
KGO1 120001Z 14019KT 33/13 A3004 RMK A01 T03250133  RH  031%=      5-min Rain = 0
KGO1 120002Z 14017KT 32/13 A3004 RMK A01 T03230134  RH  032%=      5-min Rain = 0
KGO1 120003Z 15017KT 32/13 A3004 RMK A01 T03220134  RH  032%=      5-min Rain = 0
KGO1 120004Z 16015KT 32/14 A3004 RMK A01 T03220135  RH  032%=      5-min Rain = 0
KGO1 120005Z 17017KT 32/13 A3004 RMK A01 T03220134  RH  032%=      5-min Rain = 0
KGO1 120006Z 16016KT 32/13 A3004 RMK A01 T03220134  RH  032%=      5-min Rain = 0
KGO1 120007Z 15015KT 32/14 A3004 RMK A01 T03240136  RH  032%=      5-min Rain = 0
KGO1 120008Z 15016KT 33/14 A3004 RMK A01 T03260135  RH  032%=      5-min Rain = 0
KGO1 120009Z 15015KT 33/14 A3004 RMK A01 T03260136  RH  032%=      5-min Rain = 0
KGO1 120010Z 15016KT 33/14 A3004 RMK A01 T03270136  RH  031%=      5-min Rain = 0
KGO1 120011Z 15014KT 33/14 A3004 RMK A01 T03270137  RH  032%=      5-min Rain = 0
KGO1 120012Z 14015KT 33/14 A3004 RMK A01 T03270136  RH  031%=      5-min Rain = 0
KGO1 120013Z 14015KT 33/14 A3004 RMK A01 T03270137  RH  031%=      5-min Rain = 0
KGO1 120014Z 15013KT 33/14 A3004 RMK A01 T03280139  RH  032%=      5-min Rain = 0
KGO1 120015Z 15014KT 33/14 A3004 RMK A01 T03300138  RH  031%=      5-min Rain = 0
KGO1 120016Z 15013G18KT 33/14 A3004 RMK A01 T03300138  RH  031%=      5-min Rain = 0
KGO1 120017Z 15016KT 33/14 A3004 RMK A01 T03300137  RH  031%=      5-min Rain = 0
KGO1 120018Z 15015KT 33/14 A3004 RMK A01 T03290137  RH  031%=      5-min Rain = 0
KGO1 120019Z 14016KT 33/14 A3004 RMK A01 T03280138  RH  032%=      5-min Rain = 0
KGO1 120020Z 14016KT 33/14 A3004 RMK A01 T03280136  RH  031%=      5-min Rain = 0
KGO1 120021Z 15017KT 33/14 A3004 RMK A01 T03270138  RH  032%=      5-min Rain = 0
KGO1 120022Z 15015KT 33/14 A3004 RMK A01 T03280137  RH  032%=      5-min Rain = 0
KGO1 120023Z 14017KT 33/14 A3004 RMK A01 T03280138  RH  032%=      5-min Rain = 0
KGO1 120024Z 14017KT 33/14 A3004 RMK A01 T03270137  RH  032%=      5-min Rain = 0
KGO1 120025Z 15016KT 33/14 A3004 RMK A01 T03260137  RH  032%=      5-min Rain = 0
KGO1 120026Z 15015KT 33/14 A3004 RMK A01 T03270137  RH  032%=      5-min Rain = 0
KGO1 120027Z 15014KT 33/14 A3004 RMK A01 T03260138  RH  032%=      5-min Rain = 0
KGO1 120028Z 16015KT 33/14 A3004 RMK A01 T03260137  RH  032%=      5-min Rain = 0
KGO1 120029Z 16016KT 33/14 A3004 RMK A01 T03260137  RH  032%=      5-min Rain = 0
KGO1 120030Z 15014KT 33/14 A3004 RMK A01 T03270139  RH  032%=      5-min Rain = 0
KGO1 120031Z 14016KT 33/14 A3004 RMK A01 T03280136  RH  031%=      5-min Rain = 0
KGO1 120032Z 14017KT 33/14 A3004 RMK A01 T03270136  RH  031%=      5-min Rain = 0
KGO1 120033Z 14018KT 33/14 A3004 RMK A01 T03260135  RH  031%=      5-min Rain = 0
KGO1 120034Z 15018KT 33/13 A3004 RMK A01 T03250134  RH  032%=      5-min Rain = 0
KGO1 120035Z 15015KT 32/13 A3004 RMK A01 T03230134  RH  032%=      5-min Rain = 0
KGO1 120036Z 14015KT 32/14 A3004 RMK A01 T03220135  RH  032%=      5-min Rain = 0
KGO1 120037Z 14015KT 32/13 A3004 RMK A01 T03210133  RH  032%=      5-min Rain = 0
KGO1 120038Z 15015KT 32/13 A3004 RMK A01 T03200132  RH  032%=      5-min Rain = 0
KGO1 120039Z 16013KT 32/13 A3004 RMK A01 T03190132  RH  032%=      5-min Rain = 0
KGO1 120040Z 15011KT 32/13 A3004 RMK A01 T03190134  RH  033%=      5-min Rain = 0
KGO1 120041Z 16013KT 32/13 A3004 RMK A01 T03180134  RH  033%=      5-min Rain = 0
KGO1 120042Z 16013KT 32/13 A3004 RMK A01 T03180132  RH  032%=      5-min Rain = 0
KGO1 120043Z 15013KT 32/13 A3004 RMK A01 T03170132  RH  032%=      5-min Rain = 0
KGO1 120044Z 15013KT 32/13 A3004 RMK A01 T03160132  RH  033%=      5-min Rain = 0
KGO1 120045Z 15016KT 32/13 A3004 RMK A01 T03160132  RH  033%=      5-min Rain = 0
KGO1 120046Z 15014KT 32/13 A3004 RMK A01 T03160132  RH  033%=      5-min Rain = 0
KGO1 120047Z 15014KT 32/13 A3005 RMK A01 T03160132  RH  033%=      5-min Rain = 0
KGO1 120048Z 15013KT 32/13 A3005 RMK A01 T03160131  RH  032%=      5-min Rain = 0
KGO1 120049Z 15015KT 32/13 A3005 RMK A01 T03160131  RH  032%=      5-min Rain = 0
KGO1 120050Z 15015KT 32/13 A3005 RMK A01 T03160130  RH  032%=      5-min Rain = 0
KGO1 120051Z 15015KT 32/13 A3005 RMK A01 T03160130  RH  032%=      5-min Rain = 0
KGO1 120052Z 15014KT 32/13 A3005 RMK A01 T03160130  RH  032%=      5-min Rain = 0
KGO1 120053Z 15013KT 32/13 A3005 RMK A01 T03150131  RH  032%=      5-min Rain = 0
KGO1 120054Z 15013KT 32/13 A3005 RMK A01 T03150132  RH  033%=      5-min Rain = 0
KGO1 120055Z 15013KT 32/13 A3005 RMK A01 T03150131  RH  033%=      5-min Rain = 0
KGO1 120056Z 14016KT 32/13 A3005 RMK A01 T03150130  RH  032%=      5-min Rain = 0
KGO1 120057Z 15014KT 32/13 A3005 RMK A01 T03150130  RH  032%=      5-min Rain = 0
KGO1 120058Z 14014KT 32/13 A3005 RMK A01 T03150131  RH  033%=      5-min Rain = 0
KGO1 120059Z 15014KT 32/13 A3005 RMK A01 T03150131  RH  033%=      5-min Rain = 0
KGO1 120100Z 15013KT 32/13 A3005 RMK A01 T03150130  RH  032%=      5-min Rain = 0
KGO1 120101Z 15012KT 32/13 A3005 RMK A01 T03150130  RH  032%=      5-min Rain = 0
KGO1 120102Z 15013KT 32/13 A3005 RMK A01 T03150131  RH  033%=      5-min Rain = 0
KGO1 120103Z 15014KT 32/13 A3005 RMK A01 T03150131  RH  033%=      5-min Rain = 0
KGO1 120104Z 16014KT 32/13 A3005 RMK A01 T03150131  RH  033%=      5-min Rain = 0
KGO1 120105Z 16013KT 32/13 A3005 RMK A01 T03150130  RH  032%=      5-min Rain = 0
KGO1 120106Z 16012KT 32/13 A3005 RMK A01 T03150131  RH  033%=      5-min Rain = 0
KGO1 120107Z 16012KT 32/13 A3005 RMK A01 T03150132  RH  033%=      5-min Rain = 0
KGO1 120108Z 15012KT 32/13 A3005 RMK A01 T03150131  RH  033%=      5-min Rain = 0
KGO1 120109Z 15012KT 31/13 A3005 RMK A01 T03140130  RH  033%=      5-min Rain = 0
KGO1 120110Z 15010G15KT 31/13 A3005 RMK A01 T03140132  RH  033%=      5-min Rain = 0
KGO1 120111Z 15013KT 31/13 A3005 RMK A01 T03140132  RH  033%=      5-min Rain = 0
KGO1 120112Z 15013KT 31/13 A3006 RMK A01 T03140132  RH  033%=      5-min Rain = 0
KGO1 120113Z 14012KT 31/13 A3006 RMK A01 T03140132  RH  033%=      5-min Rain = 0
KGO1 120114Z 15012KT 31/13 A3006 RMK A01 T03140133  RH  033%=      5-min Rain = 0
KGO1 120115Z 15013KT 31/13 A3005 RMK A01 T03140132  RH  033%=      5-min Rain = 0
KGO1 120116Z 15012KT 31/13 A3006 RMK A01 T03140133  RH  033%=      5-min Rain = 0
KGO1 120117Z 15010KT 31/13 A3006 RMK A01 T03130133  RH  033%=      5-min Rain = 0
KGO1 120118Z 14011KT 31/13 A3006 RMK A01 T03130133  RH  033%=      5-min Rain = 0
KGO1 120119Z 14012KT 31/13 A3005 RMK A01 T03130133  RH  033%=      5-min Rain = 0
KGO1 120120Z 15010KT 31/13 A3005 RMK A01 T03120132  RH  033%=      5-min Rain = 0
KGO1 120121Z 15008KT 31/13 A3005 RMK A01 T03120134  RH  034%=      5-min Rain = 0
KGO1 120122Z 14010KT 31/14 A3005 RMK A01 T03120135  RH  034%=      5-min Rain = 0
KGO1 120123Z 14011KT 31/13 A3005 RMK A01 T03110134  RH  034%=      5-min Rain = 0
KGO1 120124Z 14010KT 31/13 A3005 RMK A01 T03110134  RH  034%=      5-min Rain = 0
KGO1 120125Z 15008KT 31/13 A3005 RMK A01 T03110134  RH  034%=      5-min Rain = 0
KGO1 120126Z 15009KT 31/14 A3005 RMK A01 T03110135  RH  034%=      5-min Rain = 0
KGO1 120127Z 15010KT 31/14 A3005 RMK A01 T03100135  RH  034%=      5-min Rain = 0
KGO1 120128Z 15010KT 31/14 A3005 RMK A01 T03100135  RH  034%=      5-min Rain = 0
KGO1 120129Z 15009KT 31/13 A3005 RMK A01 T03090134  RH  034%=      5-min Rain = 0
KGO1 120130Z 15010KT 31/13 A3005 RMK A01 T03090134  RH  034%=      5-min Rain = 0
KGO1 120131Z 14010KT 31/13 A3005 RMK A01 T03090134  RH  034%=      5-min Rain = 0
KGO1 120132Z 14010KT 31/13 A3005 RMK A01 T03100134  RH  034%=      5-min Rain = 0
KGO1 120133Z 14011KT 31/13 A3005 RMK A01 T03090133  RH  034%=      5-min Rain = 0
KGO1 120134Z 15009KT 31/13 A3005 RMK A01 T03090133  RH  034%=      5-min Rain = 0
KGO1 120135Z 14009KT 31/13 A3005 RMK A01 T03090134  RH  034%=      5-min Rain = 0
KGO1 120136Z 14010KT 31/13 A3005 RMK A01 T03100134  RH  034%=      5-min Rain = 0
KGO1 120137Z 14009KT 31/13 A3005 RMK A01 T03090133  RH  034%=      5-min Rain = 0
KGO1 120138Z 14009KT 31/13 A3005 RMK A01 T03080134  RH  034%=      5-min Rain = 0
KGO1 120139Z 14009KT 31/13 A3005 RMK A01 T03080133  RH  034%=      5-min Rain = 0
KGO1 120140Z 14009KT 31/13 A3005 RMK A01 T03070134  RH  035%=      5-min Rain = 0
KGO1 120141Z 14009KT 31/13 A3005 RMK A01 T03070134  RH  035%=      5-min Rain = 0
KGO1 120142Z 14010KT 31/14 A3005 RMK A01 T03060135  RH  035%=      5-min Rain = 0
KGO1 120143Z 14009KT 31/14 A3005 RMK A01 T03060135  RH  035%=      5-min Rain = 0
KGO1 120144Z 14009KT 31/14 A3005 RMK A01 T03050135  RH  035%=      5-min Rain = 0
KGO1 120145Z 14009KT 30/14 A3005 RMK A01 T03040135  RH  036%=      5-min Rain = 0
KGO1 120146Z 13009KT 30/14 A3005 RMK A01 T03030135  RH  036%=      5-min Rain = 0
KGO1 120147Z 14010KT 30/14 A3005 RMK A01 T03020136  RH  036%=      5-min Rain = 0
KGO1 120148Z 13010KT 30/14 A3005 RMK A01 T03010135  RH  036%=      5-min Rain = 0
KGO1 120149Z 14008KT 30/13 A3005 RMK A01 T03020134  RH  036%=      5-min Rain = 0
KGO1 120150Z 14009KT 30/14 A3005 RMK A01 T03020135  RH  036%=      5-min Rain = 0
KGO1 120151Z 14008KT 30/14 A3005 RMK A01 T03010135  RH  036%=      5-min Rain = 0
KGO1 120152Z 14008KT 30/14 A3005 RMK A01 T03000135  RH  037%=      5-min Rain = 0
KGO1 120153Z 14008KT 30/14 A3006 RMK A01 T02990136  RH  037%=      5-min Rain = 0
KGO1 120154Z 14008KT 30/14 A3006 RMK A01 T02990135  RH  037%=      5-min Rain = 0
KGO1 120155Z 14009KT 30/14 A3006 RMK A01 T02990135  RH  037%=      5-min Rain = 0
KGO1 120156Z 14009KT 30/13 A3006 RMK A01 T02990134  RH  037%=      5-min Rain = 0
KGO1 120157Z 14009KT 30/13 A3006 RMK A01 T02990134  RH  036%=      5-min Rain = 0
KGO1 120158Z 14008KT 30/14 A3006 RMK A01 T02990135  RH  037%=      5-min Rain = 0
KGO1 120159Z 13010KT 30/14 A3006 RMK A01 T02980136  RH  037%=      5-min Rain = 0
KGO1 120200Z 14010KT 30/14 A3006 RMK A01 T02980136  RH  037%=      5-min Rain = 0
KGO1 120201Z 14009KT 30/14 A3006 RMK A01 T02980135  RH  037%=      5-min Rain = 0
KGO1 120202Z 14008KT 30/14 A3006 RMK A01 T02970135  RH  037%=      5-min Rain = 0
KGO1 120203Z 14008KT 30/14 A3006 RMK A01 T02970135  RH  037%=      5-min Rain = 0
KGO1 120204Z 14008KT 30/14 A3006 RMK A01 T02970135  RH  037%=      5-min Rain = 0
KGO1 120205Z 14007KT 30/14 A3006 RMK A01 T02960136  RH  037%=      5-min Rain = 0
KGO1 120206Z 14007KT 30/14 A3006 RMK A01 T02950135  RH  038%=      5-min Rain = 0
KGO1 120207Z 14007KT 29/14 A3006 RMK A01 T02940135  RH  038%=      5-min Rain = 0
KGO1 120208Z 14007KT 29/14 A3006 RMK A01 T02930135  RH  038%=      5-min Rain = 0
KGO1 120209Z 13007KT 29/14 A3006 RMK A01 T02920136  RH  038%=      5-min Rain = 0
KGO1 120210Z 13008KT 29/14 A3006 RMK A01 T02910136  RH  039%=      5-min Rain = 0
KGO1 120211Z 13007KT 29/14 A3006 RMK A01 T02900137  RH  039%=      5-min Rain = 0
KGO1 120212Z 13008KT 29/14 A3006 RMK A01 T02890137  RH  039%=      5-min Rain = 0
KGO1 120213Z 14007KT 29/14 A3006 RMK A01 T02880137  RH  040%=      5-min Rain = 0
KGO1 120214Z 13008KT 29/14 A3006 RMK A01 T02870137  RH  040%=      5-min Rain = 0
KGO1 120215Z 13008KT 29/14 A3006 RMK A01 T02870137  RH  040%=      5-min Rain = 0
KGO1 120216Z 13007KT 29/14 A3006 RMK A01 T02870138  RH  040%=      5-min Rain = 0
KGO1 120217Z 13008KT 29/14 A3006 RMK A01 T02870138  RH  040%=      5-min Rain = 0
KGO1 120218Z 13008KT 29/14 A3006 RMK A01 T02860138  RH  040%=      5-min Rain = 0
KGO1 120219Z 13008KT 29/14 A3006 RMK A01 T02860138  RH  040%=      5-min Rain = 0
KGO1 120220Z 13007KT 29/14 A3006 RMK A01 T02860139  RH  041%=      5-min Rain = 0
KGO1 120221Z 13007KT 28/14 A3007 RMK A01 T02840139  RH  041%=      5-min Rain = 0
KGO1 120222Z 13007KT 28/14 A3007 RMK A01 T02830139  RH  041%=      5-min Rain = 0
KGO1 120223Z 13006KT 28/14 A3007 RMK A01 T02820140  RH  042%=      5-min Rain = 0
KGO1 120224Z 12007KT 28/14 A3007 RMK A01 T02800140  RH  042%=      5-min Rain = 0
KGO1 120225Z 12007KT 28/14 A3007 RMK A01 T02790140  RH  043%=      5-min Rain = 0
KGO1 120226Z 13007KT 28/14 A3007 RMK A01 T02780140  RH  043%=      5-min Rain = 0
KGO1 120227Z 13008KT 28/14 A3007 RMK A01 T02770141  RH  043%=      5-min Rain = 0
KGO1 120228Z 13008KT 28/14 A3007 RMK A01 T02770141  RH  043%=      5-min Rain = 0
KGO1 120229Z 13008KT 28/14 A3007 RMK A01 T02770141  RH  043%=      5-min Rain = 0
KGO1 120230Z 13008KT 28/14 A3007 RMK A01 T02770142  RH  044%=      5-min Rain = 0
KGO1 120231Z 13008KT 28/14 A3007 RMK A01 T02780143  RH  044%=      5-min Rain = 0
KGO1 120232Z 13007KT 28/14 A3007 RMK A01 T02770142  RH  043%=      5-min Rain = 0
KGO1 120233Z 13008KT 28/14 A3007 RMK A01 T02780142  RH  043%=      5-min Rain = 0
KGO1 120234Z 13008KT 28/14 A3007 RMK A01 T02780143  RH  043%=      5-min Rain = 0
KGO1 120235Z 13008KT 28/14 A3007 RMK A01 T02780143  RH  043%=      5-min Rain = 0
KGO1 120236Z 13009KT 28/14 A3007 RMK A01 T02780143  RH  043%=      5-min Rain = 0
KGO1 120237Z 13008KT 28/14 A3007 RMK A01 T02780143  RH  043%=      5-min Rain = 0
KGO1 120238Z 13009KT 28/14 A3007 RMK A01 T02790143  RH  043%=      5-min Rain = 0
KGO1 120239Z 13009KT 28/14 A3007 RMK A01 T02790143  RH  043%=      5-min Rain = 0
KGO1 120240Z 13008KT 28/14 A3007 RMK A01 T02790143  RH  043%=      5-min Rain = 0
KGO1 120241Z 13008KT 28/14 A3007 RMK A01 T02790143  RH  043%=      5-min Rain = 0
KGO1 120242Z 13008KT 28/14 A3007 RMK A01 T02780142  RH  043%=      5-min Rain = 0
KGO1 120243Z 13009KT 28/14 A3007 RMK A01 T02790143  RH  043%=      5-min Rain = 0
KGO1 120244Z 13008KT 28/14 A3007 RMK A01 T02790143  RH  043%=      5-min Rain = 0
KGO1 120245Z 13008KT 28/14 A3007 RMK A01 T02790142  RH  043%=      5-min Rain = 0
KGO1 120246Z 13008KT 28/14 A3007 RMK A01 T02790143  RH  043%=      5-min Rain = 0
KGO1 120247Z 13008KT 28/14 A3008 RMK A01 T02790143  RH  043%=      5-min Rain = 0
KGO1 120248Z 13008KT 28/14 A3008 RMK A01 T02780144  RH  044%=      5-min Rain = 0
KGO1 120249Z 13008KT 28/14 A3008 RMK A01 T02770143  RH  044%=      5-min Rain = 0
KGO1 120250Z 13008KT 28/14 A3008 RMK A01 T02760143  RH  044%=      5-min Rain = 0
KGO1 120251Z 13008KT 28/14 A3008 RMK A01 T02750143  RH  044%=      5-min Rain = 0
KGO1 120252Z 13008KT 28/14 A3008 RMK A01 T02750143  RH  044%=      5-min Rain = 0
KGO1 120253Z 13008KT 28/14 A3008 RMK A01 T02750144  RH  045%=      5-min Rain = 0
KGO1 120254Z 13008KT 27/14 A3008 RMK A01 T02740144  RH  045%=      5-min Rain = 0
KGO1 120255Z 13008KT 27/14 A3008 RMK A01 T02740143  RH  045%=      5-min Rain = 0
KGO1 120256Z 13008KT 27/14 A3008 RMK A01 T02740143  RH  045%=      5-min Rain = 0
KGO1 120257Z 13008KT 27/14 A3008 RMK A01 T02740144  RH  045%=      5-min Rain = 0
KGO1 120258Z 13008KT 27/14 A3008 RMK A01 T02740143  RH  045%=      5-min Rain = 0
KGO1 120259Z 13008KT 28/14 A3008 RMK A01 T02750143  RH  045%=      5-min Rain = 0
KGO1 120300Z 13008KT 28/14 A3009 RMK A01 T02750143  RH  044%=      5-min Rain = 0
KGO1 120301Z 13007KT 28/14 A3009 RMK A01 T02750143  RH  044%=      5-min Rain = 0
KGO1 120302Z 13007KT 28/14 A3009 RMK A01 T02760144  RH  044%=      5-min Rain = 0
KGO1 120303Z 13008KT 28/14 A3009 RMK A01 T02750144  RH  044%=      5-min Rain = 0
KGO1 120304Z 14007KT 28/14 A3009 RMK A01 T02750144  RH  045%=      5-min Rain = 0
KGO1 120305Z 13007KT 28/14 A3009 RMK A01 T02750144  RH  045%=      5-min Rain = 0
KGO1 120306Z 14007KT 27/14 A3009 RMK A01 T02740144  RH  045%=      5-min Rain = 0
KGO1 120307Z 14007KT 27/14 A3009 RMK A01 T02730144  RH  045%=      5-min Rain = 0
KGO1 120308Z 14008KT 27/14 A3009 RMK A01 T02720144  RH  045%=      5-min Rain = 0
KGO1 120309Z 14007KT 27/14 A3009 RMK A01 T02720144  RH  045%=      5-min Rain = 0
KGO1 120310Z 14007KT 27/14 A3009 RMK A01 T02720144  RH  045%=      5-min Rain = 0
KGO1 120311Z 14007KT 27/14 A3009 RMK A01 T02720144  RH  045%=      5-min Rain = 0
KGO1 120312Z 14007KT 27/14 A3009 RMK A01 T02720144  RH  045%=      5-min Rain = 0
KGO1 120313Z 14007KT 27/14 A3009 RMK A01 T02720144  RH  045%=      5-min Rain = 0
KGO1 120314Z 14006KT 27/14 A3009 RMK A01 T02720144  RH  045%=      5-min Rain = 0
KGO1 120315Z 14007KT 27/14 A3009 RMK A01 T02720144  RH  045%=      5-min Rain = 0
KGO1 120316Z 14007KT 27/14 A3009 RMK A01 T02710144  RH  045%=      5-min Rain = 0
KGO1 120317Z 14007KT 27/14 A3009 RMK A01 T02710144  RH  046%=      5-min Rain = 0
KGO1 120318Z 14007KT 27/14 A3009 RMK A01 T02700144  RH  046%=      5-min Rain = 0
KGO1 120319Z 14007KT 27/14 A3009 RMK A01 T02700144  RH  046%=      5-min Rain = 0
KGO1 120320Z 14007KT 27/15 A3009 RMK A01 T02700145  RH  046%=      5-min Rain = 0
KGO1 120321Z 14007KT 27/15 A3009 RMK A01 T02690145  RH  047%=      5-min Rain = 0
KGO1 120322Z 14007KT 27/15 A3009 RMK A01 T02680145  RH  047%=      5-min Rain = 0
KGO1 120323Z 14007KT 27/15 A3009 RMK A01 T02680145  RH  047%=      5-min Rain = 0
KGO1 120324Z 14007KT 27/15 A301 RMK A01 T02680145  RH  047%=      5-min Rain = 0
KGO1 120325Z 14007KT 27/15 A301 RMK A01 T02670145  RH  047%=      5-min Rain = 0
KGO1 120326Z 14006KT 27/15 A301 RMK A01 T02670145  RH  047%=      5-min Rain = 0
KGO1 120327Z 14007KT 27/15 A301 RMK A01 T02660146  RH  048%=      5-min Rain = 0
KGO1 120328Z 14006KT 27/15 A301 RMK A01 T02650146  RH  048%=      5-min Rain = 0
KGO1 120329Z 14006KT 27/14 A301 RMK A01 T02650144  RH  048%=      5-min Rain = 0
KGO1 120330Z 14006KT 27/14 A301 RMK A01 T02650144  RH  047%=      5-min Rain = 0
KGO1 120331Z 14006KT 27/14 A301 RMK A01 T02650144  RH  047%=      5-min Rain = 0
KGO1 120332Z 14006KT 27/14 A301 RMK A01 T02650144  RH  047%=      5-min Rain = 0
KGO1 120333Z 14006KT 27/14 A301 RMK A01 T02650144  RH  047%=      5-min Rain = 0
KGO1 120334Z 14006KT 27/14 A301 RMK A01 T02650144  RH  047%=      5-min Rain = 0
KGO1 120335Z 14006KT 27/15 A301 RMK A01 T02660145  RH  047%=      5-min Rain = 0
KGO1 120336Z 14006KT 27/14 A301 RMK A01 T02650144  RH  047%=      5-min Rain = 0
KGO1 120337Z 14007KT 27/14 A301 RMK A01 T02650144  RH  048%=      5-min Rain = 0
KGO1 120338Z 14006KT 27/14 A301 RMK A01 T02650144  RH  047%=      5-min Rain = 0
KGO1 120339Z 14006KT 27/15 A301 RMK A01 T02660145  RH  047%=      5-min Rain = 0
KGO1 120340Z 14006KT 27/15 A301 RMK A01 T02650145  RH  047%=      5-min Rain = 0
KGO1 120341Z 14006KT 27/15 A301 RMK A01 T02650145  RH  048%=      5-min Rain = 0
KGO1 120342Z 14007KT 26/15 A301 RMK A01 T02640145  RH  048%=      5-min Rain = 0
KGO1 120343Z 14007KT 26/15 A301 RMK A01 T02630145  RH  048%=      5-min Rain = 0
KGO1 120344Z 14007KT 26/15 A301 RMK A01 T02630145  RH  048%=      5-min Rain = 0
KGO1 120345Z 14006KT 26/15 A301 RMK A01 T02630145  RH  048%=      5-min Rain = 0
KGO1 120346Z 14007KT 26/15 A301 RMK A01 T02630146  RH  049%=      5-min Rain = 0
KGO1 120347Z 14007KT 26/15 A301 RMK A01 T02630146  RH  049%=      5-min Rain = 0
KGO1 120348Z 14007KT 26/15 A301 RMK A01 T02620146  RH  049%=      5-min Rain = 0
KGO1 120349Z 14007KT 26/15 A301 RMK A01 T02610146  RH  049%=      5-min Rain = 0
KGO1 120350Z 14007KT 26/15 A3011 RMK A01 T02600146  RH  049%=      5-min Rain = 0
KGO1 120351Z 14007KT 26/15 A3011 RMK A01 T02600147  RH  050%=      5-min Rain = 0
KGO1 120352Z 13007KT 26/15 A3011 RMK A01 T02590147  RH  050%=      5-min Rain = 0
KGO1 120353Z 13008KT 26/15 A3011 RMK A01 T02590147  RH  050%=      5-min Rain = 0
KGO1 120354Z 13008KT 26/15 A3011 RMK A01 T02580147  RH  050%=      5-min Rain = 0
KGO1 120355Z 13008KT 26/15 A3011 RMK A01 T02580147  RH  050%=      5-min Rain = 0
KGO1 120356Z 13008KT 26/15 A3011 RMK A01 T02570147  RH  050%=      5-min Rain = 0
KGO1 120357Z 13008KT 26/15 A3011 RMK A01 T02570147  RH  050%=      5-min Rain = 0
KGO1 120358Z 13007KT 26/15 A3011 RMK A01 T02570147  RH  051%=      5-min Rain = 0
KGO1 120359Z 13007KT 26/15 A301 RMK A01 T02570147  RH  051%=      5-min Rain = 0
KGO1 120400Z 13007KT 26/15 A301 RMK A01 T02560147  RH  051%=      5-min Rain = 0
KGO1 120401Z 13007KT 26/15 A301 RMK A01 T02560147  RH  051%=      5-min Rain = 0
KGO1 120402Z 13007KT 26/15 A301 RMK A01 T02560147  RH  051%=      5-min Rain = 0
KGO1 120403Z 13007KT 26/15 A301 RMK A01 T02550148  RH  051%=      5-min Rain = 0
KGO1 120404Z 13007KT 26/15 A301 RMK A01 T02550148  RH  052%=      5-min Rain = 0
KGO1 120405Z 13007KT 25/15 A301 RMK A01 T02540148  RH  052%=      5-min Rain = 0
KGO1 120406Z 13007KT 25/15 A301 RMK A01 T02530149  RH  052%=      5-min Rain = 0
KGO1 120407Z 13007KT 25/15 A301 RMK A01 T02520149  RH  053%=      5-min Rain = 0
KGO1 120408Z 13007KT 25/15 A301 RMK A01 T02520149  RH  053%=      5-min Rain = 0
KGO1 120409Z 13007KT 25/15 A301 RMK A01 T02510149  RH  053%=      5-min Rain = 0
KGO1 120410Z 13007KT 25/15 A301 RMK A01 T02500149  RH  053%=      5-min Rain = 0
KGO1 120411Z 13007KT 25/15 A301 RMK A01 T02500149  RH  053%=      5-min Rain = 0
KGO1 120412Z 13008KT 25/15 A301 RMK A01 T02500148  RH  053%=      5-min Rain = 0
KGO1 120413Z 13007KT 25/15 A301 RMK A01 T02500147  RH  053%=      5-min Rain = 0
KGO1 120414Z 13007KT 25/15 A301 RMK A01 T02510148  RH  053%=      5-min Rain = 0
KGO1 120415Z 13008KT 25/15 A301 RMK A01 T02510147  RH  053%=      5-min Rain = 0
KGO1 120416Z 13008KT 25/15 A301 RMK A01 T02510147  RH  052%=      5-min Rain = 0
KGO1 120417Z 13008KT 25/15 A301 RMK A01 T02520147  RH  052%=      5-min Rain = 0
KGO1 120418Z 13008KT 25/15 A301 RMK A01 T02520147  RH  052%=      5-min Rain = 0
KGO1 120419Z 13008KT 25/15 A301 RMK A01 T02530147  RH  052%=      5-min Rain = 0
KGO1 120420Z 13008KT 25/15 A301 RMK A01 T02520147  RH  052%=      5-min Rain = 0
KGO1 120421Z 13008KT 25/15 A301 RMK A01 T02520147  RH  052%=      5-min Rain = 0
KGO1 120422Z 13008KT 25/15 A301 RMK A01 T02520147  RH  052%=      5-min Rain = 0
KGO1 120423Z 13008KT 25/15 A301 RMK A01 T02520148  RH  052%=      5-min Rain = 0
KGO1 120424Z 13008KT 25/15 A301 RMK A01 T02520148  RH  052%=      5-min Rain = 0
KGO1 120425Z 13008KT 25/15 A301 RMK A01 T02520147  RH  052%=      5-min Rain = 0
KGO1 120426Z 13008KT 25/15 A301 RMK A01 T02520147  RH  052%=      5-min Rain = 0
KGO1 120427Z 13008KT 25/15 A301 RMK A01 T02520147  RH  052%=      5-min Rain = 0
KGO1 120428Z 13009KT 25/15 A301 RMK A01 T02530147  RH  052%=      5-min Rain = 0
KGO1 120429Z 13008KT 25/15 A301 RMK A01 T02540147  RH  052%=      5-min Rain = 0
KGO1 120430Z 13008KT 25/15 A301 RMK A01 T02540147  RH  052%=      5-min Rain = 0
KGO1 120431Z 13008KT 25/15 A3011 RMK A01 T02540147  RH  052%=      5-min Rain = 0
KGO1 120432Z 13008KT 25/15 A3011 RMK A01 T02540147  RH  051%=      5-min Rain = 0
KGO1 120433Z 13008KT 26/15 A3011 RMK A01 T02550147  RH  051%=      5-min Rain = 0
KGO1 120434Z 13008KT 26/15 A3011 RMK A01 T02550146  RH  051%=      5-min Rain = 0
KGO1 120435Z 13008KT 26/15 A3011 RMK A01 T02570147  RH  051%=      5-min Rain = 0
KGO1 120436Z 13008KT 26/15 A3011 RMK A01 T02570147  RH  051%=      5-min Rain = 0
KGO1 120437Z 13008KT 26/15 A3011 RMK A01 T02570147  RH  051%=      5-min Rain = 0
KGO1 120438Z 13007KT 26/15 A3011 RMK A01 T02570146  RH  050%=      5-min Rain = 0
KGO1 120439Z 13007KT 26/15 A3011 RMK A01 T02570146  RH  050%=      5-min Rain = 0
KGO1 120440Z 14007KT 26/15 A3011 RMK A01 T02570146  RH  050%=      5-min Rain = 0
KGO1 120441Z 14008KT 26/15 A3011 RMK A01 T02570146  RH  050%=      5-min Rain = 0
KGO1 120442Z 14007KT 26/15 A3011 RMK A01 T02570146  RH  050%=      5-min Rain = 0
KGO1 120443Z 14007KT 26/15 A3011 RMK A01 T02570146  RH  050%=      5-min Rain = 0
KGO1 120444Z 14007KT 26/15 A3011 RMK A01 T02570146  RH  050%=      5-min Rain = 0
KGO1 120445Z 14007KT 26/15 A3011 RMK A01 T02570147  RH  050%=      5-min Rain = 0
KGO1 120446Z 14008KT 26/15 A3011 RMK A01 T02560146  RH  051%=      5-min Rain = 0
KGO1 120447Z 14007KT 26/15 A3011 RMK A01 T02560146  RH  051%=      5-min Rain = 0
KGO1 120448Z 14007KT 26/15 A3011 RMK A01 T02560147  RH  051%=      5-min Rain = 0
KGO1 120449Z 13007KT 26/15 A3011 RMK A01 T02560147  RH  051%=      5-min Rain = 0
KGO1 120450Z 14008KT 26/15 A3011 RMK A01 T02550147  RH  051%=      5-min Rain = 0
KGO1 120451Z 14008KT 26/15 A3011 RMK A01 T02550146  RH  051%=      5-min Rain = 0
KGO1 120452Z 14007KT 26/15 A3011 RMK A01 T02550147  RH  051%=      5-min Rain = 0
KGO1 120453Z 14007KT 25/15 A3011 RMK A01 T02540146  RH  051%=      5-min Rain = 0
KGO1 120454Z 14007KT 26/15 A3011 RMK A01 T02550146  RH  051%=      5-min Rain = 0
KGO1 120455Z 14007KT 26/15 A3011 RMK A01 T02550146  RH  051%=      5-min Rain = 0
KGO1 120456Z 14006KT 26/15 A3011 RMK A01 T02550147  RH  051%=      5-min Rain = 0
KGO1 120457Z 14007KT 25/15 A3011 RMK A01 T02540147  RH  051%=      5-min Rain = 0
KGO1 120458Z 14007KT 25/15 A3011 RMK A01 T02540146  RH  051%=      5-min Rain = 0
KGO1 120459Z 14007KT 25/15 A3011 RMK A01 T02540146  RH  051%=      5-min Rain = 0

Page generated in 0.0333 seconds.